<?xml version="1.0" encoding="UTF-8" standalone="no" ?>
<gpx xmlns="http://www.topografix.com/GPX/1/1" xmlns:xsi="http://www.w3.org/2001/XMLSchema-instance" xsi:schemaLocation="http://www.topografix.com/GPX/1/1 http://www.topografix.com/GPX/1/1/gpx.xsd" version="1.1" creator="VisuGPX - https://www.visugpx.com">
  <metadata>
    <name>ccv_26juin11_82km</name>
    <desc><![CDATA[ccv_26juin11_82kmccv_26juin11_82kmccv_26juin11_82kmccv_26juin11_82kmccv_26juin11_82km]]></desc>
  </metadata>
  <trk>
    <name><![CDATA[Toaster Course]]></name>
    <trkseg>
      <trkpt lat="48.63467" lon="6.3131">
        <ele>207</ele>
        <time>2011-06-23T00:00:00Z</time>
      </trkpt>
      <trkpt lat="48.63461" lon="6.31306">
        <ele>206</ele>
        <time>2011-06-23T00:00:00Z</time>
      </trkpt>
      <trkpt lat="48.63456" lon="6.3132">
        <ele>206</ele>
        <time>2011-06-23T00:00:02Z</time>
      </trkpt>
      <trkpt lat="48.63396" lon="6.31288">
        <ele>205</ele>
        <time>2011-06-23T00:00:10Z</time>
      </trkpt>
      <trkpt lat="48.63393" lon="6.31282">
        <ele>204</ele>
        <time>2011-06-23T00:00:11Z</time>
      </trkpt>
      <trkpt lat="48.63387" lon="6.31251">
        <ele>204</ele>
        <time>2011-06-23T00:00:14Z</time>
      </trkpt>
      <trkpt lat="48.63388" lon="6.31229">
        <ele>204</ele>
        <time>2011-06-23T00:00:16Z</time>
      </trkpt>
      <trkpt lat="48.63434" lon="6.31114">
        <ele>204</ele>
        <time>2011-06-23T00:00:30Z</time>
      </trkpt>
      <trkpt lat="48.63445" lon="6.31097">
        <ele>205</ele>
        <time>2011-06-23T00:00:32Z</time>
      </trkpt>
      <trkpt lat="48.63422" lon="6.31044">
        <ele>204</ele>
        <time>2011-06-23T00:00:38Z</time>
      </trkpt>
      <trkpt lat="48.63422" lon="6.31017">
        <ele>204</ele>
        <time>2011-06-23T00:00:40Z</time>
      </trkpt>
      <trkpt lat="48.63405" lon="6.30994">
        <ele>204</ele>
        <time>2011-06-23T00:00:43Z</time>
      </trkpt>
      <trkpt lat="48.63376" lon="6.30932">
        <ele>204</ele>
        <time>2011-06-23T00:00:50Z</time>
      </trkpt>
      <trkpt lat="48.63293" lon="6.30792">
        <ele>203</ele>
        <time>2011-06-23T00:01:06Z</time>
      </trkpt>
      <trkpt lat="48.63276" lon="6.30757">
        <ele>203</ele>
        <time>2011-06-23T00:01:11Z</time>
      </trkpt>
      <trkpt lat="48.6327" lon="6.30734">
        <ele>203</ele>
        <time>2011-06-23T00:01:14Z</time>
      </trkpt>
      <trkpt lat="48.63271" lon="6.307">
        <ele>204</ele>
        <time>2011-06-23T00:01:18Z</time>
      </trkpt>
      <trkpt lat="48.63289" lon="6.30658">
        <ele>204</ele>
        <time>2011-06-23T00:01:24Z</time>
      </trkpt>
      <trkpt lat="48.63299" lon="6.30623">
        <ele>205</ele>
        <time>2011-06-23T00:01:28Z</time>
      </trkpt>
      <trkpt lat="48.63323" lon="6.30487">
        <ele>205</ele>
        <time>2011-06-23T00:01:40Z</time>
      </trkpt>
      <trkpt lat="48.63334" lon="6.30444">
        <ele>205</ele>
        <time>2011-06-23T00:01:47Z</time>
      </trkpt>
      <trkpt lat="48.63258" lon="6.30315">
        <ele>209</ele>
        <time>2011-06-23T00:02:09Z</time>
      </trkpt>
      <trkpt lat="48.63243" lon="6.30258">
        <ele>209</ele>
        <time>2011-06-23T00:02:17Z</time>
      </trkpt>
      <trkpt lat="48.63175" lon="6.30174">
        <ele>212</ele>
        <time>2011-06-23T00:02:34Z</time>
      </trkpt>
      <trkpt lat="48.63164" lon="6.30185">
        <ele>212</ele>
        <time>2011-06-23T00:02:37Z</time>
      </trkpt>
      <trkpt lat="48.63122" lon="6.30199">
        <ele>214</ele>
        <time>2011-06-23T00:02:46Z</time>
      </trkpt>
      <trkpt lat="48.63107" lon="6.30147">
        <ele>215</ele>
        <time>2011-06-23T00:02:55Z</time>
      </trkpt>
      <trkpt lat="48.63086" lon="6.30103">
        <ele>217</ele>
        <time>2011-06-23T00:03:03Z</time>
      </trkpt>
      <trkpt lat="48.63062" lon="6.30063">
        <ele>219</ele>
        <time>2011-06-23T00:03:13Z</time>
      </trkpt>
      <trkpt lat="48.63011" lon="6.30003">
        <ele>223</ele>
        <time>2011-06-23T00:03:31Z</time>
      </trkpt>
      <trkpt lat="48.62947" lon="6.29901">
        <ele>226</ele>
        <time>2011-06-23T00:03:50Z</time>
      </trkpt>
      <trkpt lat="48.62803" lon="6.29601">
        <ele>237</ele>
        <time>2011-06-23T00:04:50Z</time>
      </trkpt>
      <trkpt lat="48.62758" lon="6.29523">
        <ele>242</ele>
        <time>2011-06-23T00:05:11Z</time>
      </trkpt>
      <trkpt lat="48.62717" lon="6.29482">
        <ele>246</ele>
        <time>2011-06-23T00:05:27Z</time>
      </trkpt>
      <trkpt lat="48.62519" lon="6.29333">
        <ele>256</ele>
        <time>2011-06-23T00:06:20Z</time>
      </trkpt>
      <trkpt lat="48.62484" lon="6.29294">
        <ele>255</ele>
        <time>2011-06-23T00:06:26Z</time>
      </trkpt>
      <trkpt lat="48.62465" lon="6.29258">
        <ele>254</ele>
        <time>2011-06-23T00:06:30Z</time>
      </trkpt>
      <trkpt lat="48.62444" lon="6.29284">
        <ele>254</ele>
        <time>2011-06-23T00:06:34Z</time>
      </trkpt>
      <trkpt lat="48.6232" lon="6.29089">
        <ele>252</ele>
        <time>2011-06-23T00:06:58Z</time>
      </trkpt>
      <trkpt lat="48.62279" lon="6.29036">
        <ele>250</ele>
        <time>2011-06-23T00:07:05Z</time>
      </trkpt>
      <trkpt lat="48.62122" lon="6.28857">
        <ele>245</ele>
        <time>2011-06-23T00:07:31Z</time>
      </trkpt>
      <trkpt lat="48.62067" lon="6.28788">
        <ele>242</ele>
        <time>2011-06-23T00:07:41Z</time>
      </trkpt>
      <trkpt lat="48.6201" lon="6.28706">
        <ele>240</ele>
        <time>2011-06-23T00:07:51Z</time>
      </trkpt>
      <trkpt lat="48.6195" lon="6.28608">
        <ele>237</ele>
        <time>2011-06-23T00:08:03Z</time>
      </trkpt>
      <trkpt lat="48.61873" lon="6.28504">
        <ele>235</ele>
        <time>2011-06-23T00:08:17Z</time>
      </trkpt>
      <trkpt lat="48.61856" lon="6.28487">
        <ele>235</ele>
        <time>2011-06-23T00:08:21Z</time>
      </trkpt>
      <trkpt lat="48.61813" lon="6.28467">
        <ele>236</ele>
        <time>2011-06-23T00:08:29Z</time>
      </trkpt>
      <trkpt lat="48.61798" lon="6.28451">
        <ele>236</ele>
        <time>2011-06-23T00:08:32Z</time>
      </trkpt>
      <trkpt lat="48.61783" lon="6.2842">
        <ele>237</ele>
        <time>2011-06-23T00:08:36Z</time>
      </trkpt>
      <trkpt lat="48.61769" lon="6.28308">
        <ele>238</ele>
        <time>2011-06-23T00:08:50Z</time>
      </trkpt>
      <trkpt lat="48.61756" lon="6.28275">
        <ele>239</ele>
        <time>2011-06-23T00:08:55Z</time>
      </trkpt>
      <trkpt lat="48.61731" lon="6.28231">
        <ele>240</ele>
        <time>2011-06-23T00:09:02Z</time>
      </trkpt>
      <trkpt lat="48.61651" lon="6.28109">
        <ele>243</ele>
        <time>2011-06-23T00:09:24Z</time>
      </trkpt>
      <trkpt lat="48.6152" lon="6.27957">
        <ele>246</ele>
        <time>2011-06-23T00:09:54Z</time>
      </trkpt>
      <trkpt lat="48.61436" lon="6.2782">
        <ele>246</ele>
        <time>2011-06-23T00:10:10Z</time>
      </trkpt>
      <trkpt lat="48.61251" lon="6.2763">
        <ele>253</ele>
        <time>2011-06-23T00:10:57Z</time>
      </trkpt>
      <trkpt lat="48.61191" lon="6.27553">
        <ele>254</ele>
        <time>2011-06-23T00:11:10Z</time>
      </trkpt>
      <trkpt lat="48.61095" lon="6.27461">
        <ele>256</ele>
        <time>2011-06-23T00:11:30Z</time>
      </trkpt>
      <trkpt lat="48.61021" lon="6.27374">
        <ele>256</ele>
        <time>2011-06-23T00:11:42Z</time>
      </trkpt>
      <trkpt lat="48.60994" lon="6.27348">
        <ele>256</ele>
        <time>2011-06-23T00:11:48Z</time>
      </trkpt>
      <trkpt lat="48.60847" lon="6.27275">
        <ele>259</ele>
        <time>2011-06-23T00:12:14Z</time>
      </trkpt>
      <trkpt lat="48.60697" lon="6.27216">
        <ele>262</ele>
        <time>2011-06-23T00:12:42Z</time>
      </trkpt>
      <trkpt lat="48.60645" lon="6.27191">
        <ele>262</ele>
        <time>2011-06-23T00:12:52Z</time>
      </trkpt>
      <trkpt lat="48.60515" lon="6.27099">
        <ele>265</ele>
        <time>2011-06-23T00:13:16Z</time>
      </trkpt>
      <trkpt lat="48.6044" lon="6.27037">
        <ele>267</ele>
        <time>2011-06-23T00:13:34Z</time>
      </trkpt>
      <trkpt lat="48.60272" lon="6.26848">
        <ele>274</ele>
        <time>2011-06-23T00:14:17Z</time>
      </trkpt>
      <trkpt lat="48.60142" lon="6.26679">
        <ele>277</ele>
        <time>2011-06-23T00:14:47Z</time>
      </trkpt>
      <trkpt lat="48.60149" lon="6.26657">
        <ele>276</ele>
        <time>2011-06-23T00:14:49Z</time>
      </trkpt>
      <trkpt lat="48.60178" lon="6.26606">
        <ele>276</ele>
        <time>2011-06-23T00:14:55Z</time>
      </trkpt>
      <trkpt lat="48.60174" lon="6.26588">
        <ele>275</ele>
        <time>2011-06-23T00:14:57Z</time>
      </trkpt>
      <trkpt lat="48.60131" lon="6.26523">
        <ele>275</ele>
        <time>2011-06-23T00:15:05Z</time>
      </trkpt>
      <trkpt lat="48.60082" lon="6.26379">
        <ele>275</ele>
        <time>2011-06-23T00:15:19Z</time>
      </trkpt>
      <trkpt lat="48.60059" lon="6.26318">
        <ele>275</ele>
        <time>2011-06-23T00:15:26Z</time>
      </trkpt>
      <trkpt lat="48.60041" lon="6.26283">
        <ele>275</ele>
        <time>2011-06-23T00:15:31Z</time>
      </trkpt>
      <trkpt lat="48.59897" lon="6.26102">
        <ele>277</ele>
        <time>2011-06-23T00:15:59Z</time>
      </trkpt>
      <trkpt lat="48.5987" lon="6.26062">
        <ele>278</ele>
        <time>2011-06-23T00:16:07Z</time>
      </trkpt>
      <trkpt lat="48.59856" lon="6.26034">
        <ele>278</ele>
        <time>2011-06-23T00:16:12Z</time>
      </trkpt>
      <trkpt lat="48.59848" lon="6.25987">
        <ele>280</ele>
        <time>2011-06-23T00:16:19Z</time>
      </trkpt>
      <trkpt lat="48.59856" lon="6.25777">
        <ele>278</ele>
        <time>2011-06-23T00:16:37Z</time>
      </trkpt>
      <trkpt lat="48.59847" lon="6.25733">
        <ele>278</ele>
        <time>2011-06-23T00:16:42Z</time>
      </trkpt>
      <trkpt lat="48.59671" lon="6.25429">
        <ele>279</ele>
        <time>2011-06-23T00:17:20Z</time>
      </trkpt>
      <trkpt lat="48.59578" lon="6.25184">
        <ele>278</ele>
        <time>2011-06-23T00:17:45Z</time>
      </trkpt>
      <trkpt lat="48.59548" lon="6.25137">
        <ele>276</ele>
        <time>2011-06-23T00:17:50Z</time>
      </trkpt>
      <trkpt lat="48.59468" lon="6.25057">
        <ele>273</ele>
        <time>2011-06-23T00:18:03Z</time>
      </trkpt>
      <trkpt lat="48.59454" lon="6.25036">
        <ele>272</ele>
        <time>2011-06-23T00:18:06Z</time>
      </trkpt>
      <trkpt lat="48.59416" lon="6.24956">
        <ele>272</ele>
        <time>2011-06-23T00:18:14Z</time>
      </trkpt>
      <trkpt lat="48.59393" lon="6.24917">
        <ele>272</ele>
        <time>2011-06-23T00:18:19Z</time>
      </trkpt>
      <trkpt lat="48.59243" lon="6.24715">
        <ele>287</ele>
        <time>2011-06-23T00:19:22Z</time>
      </trkpt>
      <trkpt lat="48.5916" lon="6.24499">
        <ele>295</ele>
        <time>2011-06-23T00:20:03Z</time>
      </trkpt>
      <trkpt lat="48.59143" lon="6.24464">
        <ele>295</ele>
        <time>2011-06-23T00:20:08Z</time>
      </trkpt>
      <trkpt lat="48.59132" lon="6.24448">
        <ele>295</ele>
        <time>2011-06-23T00:20:10Z</time>
      </trkpt>
      <trkpt lat="48.59098" lon="6.24416">
        <ele>295</ele>
        <time>2011-06-23T00:20:16Z</time>
      </trkpt>
      <trkpt lat="48.5905" lon="6.24392">
        <ele>296</ele>
        <time>2011-06-23T00:20:24Z</time>
      </trkpt>
      <trkpt lat="48.59026" lon="6.24374">
        <ele>295</ele>
        <time>2011-06-23T00:20:27Z</time>
      </trkpt>
      <trkpt lat="48.59002" lon="6.2434">
        <ele>295</ele>
        <time>2011-06-23T00:20:32Z</time>
      </trkpt>
      <trkpt lat="48.58961" lon="6.24257">
        <ele>295</ele>
        <time>2011-06-23T00:20:41Z</time>
      </trkpt>
      <trkpt lat="48.58945" lon="6.2422">
        <ele>294</ele>
        <time>2011-06-23T00:20:45Z</time>
      </trkpt>
      <trkpt lat="48.58861" lon="6.23947">
        <ele>289</ele>
        <time>2011-06-23T00:21:11Z</time>
      </trkpt>
      <trkpt lat="48.58802" lon="6.23771">
        <ele>288</ele>
        <time>2011-06-23T00:21:29Z</time>
      </trkpt>
      <trkpt lat="48.58628" lon="6.2338">
        <ele>288</ele>
        <time>2011-06-23T00:22:10Z</time>
      </trkpt>
      <trkpt lat="48.58619" lon="6.23337">
        <ele>287</ele>
        <time>2011-06-23T00:22:14Z</time>
      </trkpt>
      <trkpt lat="48.58608" lon="6.23208">
        <ele>285</ele>
        <time>2011-06-23T00:22:26Z</time>
      </trkpt>
      <trkpt lat="48.58589" lon="6.23154">
        <ele>285</ele>
        <time>2011-06-23T00:22:31Z</time>
      </trkpt>
      <trkpt lat="48.58574" lon="6.23122">
        <ele>285</ele>
        <time>2011-06-23T00:22:35Z</time>
      </trkpt>
      <trkpt lat="48.58536" lon="6.23062">
        <ele>285</ele>
        <time>2011-06-23T00:22:42Z</time>
      </trkpt>
      <trkpt lat="48.58387" lon="6.22886">
        <ele>288</ele>
        <time>2011-06-23T00:23:14Z</time>
      </trkpt>
      <trkpt lat="48.5837" lon="6.22862">
        <ele>288</ele>
        <time>2011-06-23T00:23:18Z</time>
      </trkpt>
      <trkpt lat="48.58359" lon="6.22835">
        <ele>288</ele>
        <time>2011-06-23T00:23:21Z</time>
      </trkpt>
      <trkpt lat="48.58262" lon="6.22515">
        <ele>290</ele>
        <time>2011-06-23T00:23:56Z</time>
      </trkpt>
      <trkpt lat="48.5822" lon="6.22452">
        <ele>293</ele>
        <time>2011-06-23T00:24:11Z</time>
      </trkpt>
      <trkpt lat="48.58213" lon="6.22433">
        <ele>293</ele>
        <time>2011-06-23T00:24:15Z</time>
      </trkpt>
      <trkpt lat="48.58214" lon="6.22405">
        <ele>294</ele>
        <time>2011-06-23T00:24:20Z</time>
      </trkpt>
      <trkpt lat="48.58235" lon="6.22345">
        <ele>297</ele>
        <time>2011-06-23T00:24:31Z</time>
      </trkpt>
      <trkpt lat="48.58236" lon="6.22328">
        <ele>297</ele>
        <time>2011-06-23T00:24:34Z</time>
      </trkpt>
      <trkpt lat="48.58231" lon="6.22311">
        <ele>298</ele>
        <time>2011-06-23T00:24:38Z</time>
      </trkpt>
      <trkpt lat="48.58222" lon="6.22301">
        <ele>298</ele>
        <time>2011-06-23T00:24:41Z</time>
      </trkpt>
      <trkpt lat="48.58204" lon="6.22302">
        <ele>299</ele>
        <time>2011-06-23T00:24:46Z</time>
      </trkpt>
      <trkpt lat="48.58123" lon="6.22361">
        <ele>305</ele>
        <time>2011-06-23T00:25:10Z</time>
      </trkpt>
      <trkpt lat="48.5811" lon="6.22359">
        <ele>305</ele>
        <time>2011-06-23T00:25:14Z</time>
      </trkpt>
      <trkpt lat="48.581" lon="6.22348">
        <ele>306</ele>
        <time>2011-06-23T00:25:17Z</time>
      </trkpt>
      <trkpt lat="48.58098" lon="6.22311">
        <ele>308</ele>
        <time>2011-06-23T00:25:25Z</time>
      </trkpt>
      <trkpt lat="48.58149" lon="6.22148">
        <ele>317</ele>
        <time>2011-06-23T00:26:01Z</time>
      </trkpt>
      <trkpt lat="48.582" lon="6.21938">
        <ele>321</ele>
        <time>2011-06-23T00:26:30Z</time>
      </trkpt>
      <trkpt lat="48.58207" lon="6.21896">
        <ele>321</ele>
        <time>2011-06-23T00:26:36Z</time>
      </trkpt>
      <trkpt lat="48.58208" lon="6.2184">
        <ele>322</ele>
        <time>2011-06-23T00:26:44Z</time>
      </trkpt>
      <trkpt lat="48.58172" lon="6.21491">
        <ele>330</ele>
        <time>2011-06-23T00:27:32Z</time>
      </trkpt>
      <trkpt lat="48.58163" lon="6.21481">
        <ele>330</ele>
        <time>2011-06-23T00:27:34Z</time>
      </trkpt>
      <trkpt lat="48.58119" lon="6.2137">
        <ele>332</ele>
        <time>2011-06-23T00:27:50Z</time>
      </trkpt>
      <trkpt lat="48.58084" lon="6.21293">
        <ele>330</ele>
        <time>2011-06-23T00:27:58Z</time>
      </trkpt>
      <trkpt lat="48.58058" lon="6.21221">
        <ele>329</ele>
        <time>2011-06-23T00:28:05Z</time>
      </trkpt>
      <trkpt lat="48.57998" lon="6.20843">
        <ele>325</ele>
        <time>2011-06-23T00:28:40Z</time>
      </trkpt>
      <trkpt lat="48.57963" lon="6.20688">
        <ele>321</ele>
        <time>2011-06-23T00:28:54Z</time>
      </trkpt>
      <trkpt lat="48.57954" lon="6.20617">
        <ele>319</ele>
        <time>2011-06-23T00:29:00Z</time>
      </trkpt>
      <trkpt lat="48.57952" lon="6.20554">
        <ele>318</ele>
        <time>2011-06-23T00:29:06Z</time>
      </trkpt>
      <trkpt lat="48.57954" lon="6.2052">
        <ele>318</ele>
        <time>2011-06-23T00:29:09Z</time>
      </trkpt>
      <trkpt lat="48.57972" lon="6.20475">
        <ele>317</ele>
        <time>2011-06-23T00:29:14Z</time>
      </trkpt>
      <trkpt lat="48.58142" lon="6.20083">
        <ele>314</ele>
        <time>2011-06-23T00:29:55Z</time>
      </trkpt>
      <trkpt lat="48.58277" lon="6.19789">
        <ele>312</ele>
        <time>2011-06-23T00:30:27Z</time>
      </trkpt>
      <trkpt lat="48.58295" lon="6.19757">
        <ele>311</ele>
        <time>2011-06-23T00:30:30Z</time>
      </trkpt>
      <trkpt lat="48.58316" lon="6.19732">
        <ele>310</ele>
        <time>2011-06-23T00:30:34Z</time>
      </trkpt>
      <trkpt lat="48.58367" lon="6.19689">
        <ele>308</ele>
        <time>2011-06-23T00:30:42Z</time>
      </trkpt>
      <trkpt lat="48.58382" lon="6.19656">
        <ele>306</ele>
        <time>2011-06-23T00:30:45Z</time>
      </trkpt>
      <trkpt lat="48.58384" lon="6.19608">
        <ele>305</ele>
        <time>2011-06-23T00:30:50Z</time>
      </trkpt>
      <trkpt lat="48.58381" lon="6.19395">
        <ele>300</ele>
        <time>2011-06-23T00:31:08Z</time>
      </trkpt>
      <trkpt lat="48.58362" lon="6.19239">
        <ele>294</ele>
        <time>2011-06-23T00:31:22Z</time>
      </trkpt>
      <trkpt lat="48.58351" lon="6.1918">
        <ele>291</ele>
        <time>2011-06-23T00:31:28Z</time>
      </trkpt>
      <trkpt lat="48.58242" lon="6.18761">
        <ele>276</ele>
        <time>2011-06-23T00:32:08Z</time>
      </trkpt>
      <trkpt lat="48.58227" lon="6.18641">
        <ele>269</ele>
        <time>2011-06-23T00:32:18Z</time>
      </trkpt>
      <trkpt lat="48.58222" lon="6.18529">
        <ele>264</ele>
        <time>2011-06-23T00:32:28Z</time>
      </trkpt>
      <trkpt lat="48.58222" lon="6.18529">
        <ele>264</ele>
        <time>2011-06-23T00:32:29Z</time>
      </trkpt>
      <trkpt lat="48.58218" lon="6.18294">
        <ele>253</ele>
        <time>2011-06-23T00:32:50Z</time>
      </trkpt>
      <trkpt lat="48.58227" lon="6.18266">
        <ele>252</ele>
        <time>2011-06-23T00:32:53Z</time>
      </trkpt>
      <trkpt lat="48.58241" lon="6.18256">
        <ele>252</ele>
        <time>2011-06-23T00:32:55Z</time>
      </trkpt>
      <trkpt lat="48.58253" lon="6.18256">
        <ele>252</ele>
        <time>2011-06-23T00:32:57Z</time>
      </trkpt>
      <trkpt lat="48.5831" lon="6.18306">
        <ele>251</ele>
        <time>2011-06-23T00:33:05Z</time>
      </trkpt>
      <trkpt lat="48.58331" lon="6.18316">
        <ele>250</ele>
        <time>2011-06-23T00:33:08Z</time>
      </trkpt>
      <trkpt lat="48.58345" lon="6.18309">
        <ele>249</ele>
        <time>2011-06-23T00:33:10Z</time>
      </trkpt>
      <trkpt lat="48.5835" lon="6.18293">
        <ele>249</ele>
        <time>2011-06-23T00:33:12Z</time>
      </trkpt>
      <trkpt lat="48.58337" lon="6.18248">
        <ele>247</ele>
        <time>2011-06-23T00:33:16Z</time>
      </trkpt>
      <trkpt lat="48.58282" lon="6.1811">
        <ele>244</ele>
        <time>2011-06-23T00:33:30Z</time>
      </trkpt>
      <trkpt lat="48.58261" lon="6.18047">
        <ele>241</ele>
        <time>2011-06-23T00:33:37Z</time>
      </trkpt>
      <trkpt lat="48.58247" lon="6.18">
        <ele>240</ele>
        <time>2011-06-23T00:33:41Z</time>
      </trkpt>
      <trkpt lat="48.58232" lon="6.17928">
        <ele>238</ele>
        <time>2011-06-23T00:33:48Z</time>
      </trkpt>
      <trkpt lat="48.58209" lon="6.17889">
        <ele>235</ele>
        <time>2011-06-23T00:33:52Z</time>
      </trkpt>
      <trkpt lat="48.58187" lon="6.17839">
        <ele>232</ele>
        <time>2011-06-23T00:33:58Z</time>
      </trkpt>
      <trkpt lat="48.58184" lon="6.17804">
        <ele>231</ele>
        <time>2011-06-23T00:34:01Z</time>
      </trkpt>
      <trkpt lat="48.58157" lon="6.17824">
        <ele>231</ele>
        <time>2011-06-23T00:34:05Z</time>
      </trkpt>
      <trkpt lat="48.58123" lon="6.17867">
        <ele>231</ele>
        <time>2011-06-23T00:34:12Z</time>
      </trkpt>
      <trkpt lat="48.58045" lon="6.17951">
        <ele>232</ele>
        <time>2011-06-23T00:34:26Z</time>
      </trkpt>
      <trkpt lat="48.57953" lon="6.18034">
        <ele>229</ele>
        <time>2011-06-23T00:34:40Z</time>
      </trkpt>
      <trkpt lat="48.57924" lon="6.18041">
        <ele>228</ele>
        <time>2011-06-23T00:34:44Z</time>
      </trkpt>
      <trkpt lat="48.57879" lon="6.18035">
        <ele>227</ele>
        <time>2011-06-23T00:34:50Z</time>
      </trkpt>
      <trkpt lat="48.5774" lon="6.17988">
        <ele>226</ele>
        <time>2011-06-23T00:35:09Z</time>
      </trkpt>
      <trkpt lat="48.57695" lon="6.17958">
        <ele>226</ele>
        <time>2011-06-23T00:35:16Z</time>
      </trkpt>
      <trkpt lat="48.57679" lon="6.17934">
        <ele>226</ele>
        <time>2011-06-23T00:35:19Z</time>
      </trkpt>
      <trkpt lat="48.57664" lon="6.17923">
        <ele>226</ele>
        <time>2011-06-23T00:35:21Z</time>
      </trkpt>
      <trkpt lat="48.57651" lon="6.17894">
        <ele>226</ele>
        <time>2011-06-23T00:35:24Z</time>
      </trkpt>
      <trkpt lat="48.5764" lon="6.17845">
        <ele>226</ele>
        <time>2011-06-23T00:35:29Z</time>
      </trkpt>
      <trkpt lat="48.57617" lon="6.17686">
        <ele>226</ele>
        <time>2011-06-23T00:35:43Z</time>
      </trkpt>
      <trkpt lat="48.57608" lon="6.17647">
        <ele>227</ele>
        <time>2011-06-23T00:35:50Z</time>
      </trkpt>
      <trkpt lat="48.57595" lon="6.17611">
        <ele>228</ele>
        <time>2011-06-23T00:35:57Z</time>
      </trkpt>
      <trkpt lat="48.57585" lon="6.17591">
        <ele>229</ele>
        <time>2011-06-23T00:36:02Z</time>
      </trkpt>
      <trkpt lat="48.57551" lon="6.1755">
        <ele>232</ele>
        <time>2011-06-23T00:36:13Z</time>
      </trkpt>
      <trkpt lat="48.57521" lon="6.1753">
        <ele>234</ele>
        <time>2011-06-23T00:36:22Z</time>
      </trkpt>
      <trkpt lat="48.57479" lon="6.1752">
        <ele>236</ele>
        <time>2011-06-23T00:36:34Z</time>
      </trkpt>
      <trkpt lat="48.57442" lon="6.17529">
        <ele>239</ele>
        <time>2011-06-23T00:36:45Z</time>
      </trkpt>
      <trkpt lat="48.57223" lon="6.17646">
        <ele>247</ele>
        <time>2011-06-23T00:37:35Z</time>
      </trkpt>
      <trkpt lat="48.57191" lon="6.17642">
        <ele>249</ele>
        <time>2011-06-23T00:37:45Z</time>
      </trkpt>
      <trkpt lat="48.57146" lon="6.1761">
        <ele>253</ele>
        <time>2011-06-23T00:38:01Z</time>
      </trkpt>
      <trkpt lat="48.57114" lon="6.17605">
        <ele>256</ele>
        <time>2011-06-23T00:38:12Z</time>
      </trkpt>
      <trkpt lat="48.56974" lon="6.17659">
        <ele>263</ele>
        <time>2011-06-23T00:38:48Z</time>
      </trkpt>
      <trkpt lat="48.56948" lon="6.17685">
        <ele>264</ele>
        <time>2011-06-23T00:38:55Z</time>
      </trkpt>
      <trkpt lat="48.56935" lon="6.17714">
        <ele>265</ele>
        <time>2011-06-23T00:39:00Z</time>
      </trkpt>
      <trkpt lat="48.56929" lon="6.1776">
        <ele>266</ele>
        <time>2011-06-23T00:39:07Z</time>
      </trkpt>
      <trkpt lat="48.5693" lon="6.17824">
        <ele>268</ele>
        <time>2011-06-23T00:39:17Z</time>
      </trkpt>
      <trkpt lat="48.5692" lon="6.17861">
        <ele>268</ele>
        <time>2011-06-23T00:39:23Z</time>
      </trkpt>
      <trkpt lat="48.56909" lon="6.17883">
        <ele>269</ele>
        <time>2011-06-23T00:39:27Z</time>
      </trkpt>
      <trkpt lat="48.56883" lon="6.17908">
        <ele>270</ele>
        <time>2011-06-23T00:39:33Z</time>
      </trkpt>
      <trkpt lat="48.56845" lon="6.17919">
        <ele>272</ele>
        <time>2011-06-23T00:39:42Z</time>
      </trkpt>
      <trkpt lat="48.56818" lon="6.17938">
        <ele>272</ele>
        <time>2011-06-23T00:39:46Z</time>
      </trkpt>
      <trkpt lat="48.56753" lon="6.18035">
        <ele>272</ele>
        <time>2011-06-23T00:39:58Z</time>
      </trkpt>
      <trkpt lat="48.5668" lon="6.18079">
        <ele>275</ele>
        <time>2011-06-23T00:40:17Z</time>
      </trkpt>
      <trkpt lat="48.56652" lon="6.18091">
        <ele>277</ele>
        <time>2011-06-23T00:40:24Z</time>
      </trkpt>
      <trkpt lat="48.56619" lon="6.18086">
        <ele>278</ele>
        <time>2011-06-23T00:40:33Z</time>
      </trkpt>
      <trkpt lat="48.5659" lon="6.18063">
        <ele>280</ele>
        <time>2011-06-23T00:40:41Z</time>
      </trkpt>
      <trkpt lat="48.56491" lon="6.17952">
        <ele>286</ele>
        <time>2011-06-23T00:41:11Z</time>
      </trkpt>
      <trkpt lat="48.56367" lon="6.1779">
        <ele>293</ele>
        <time>2011-06-23T00:41:50Z</time>
      </trkpt>
      <trkpt lat="48.56332" lon="6.17767">
        <ele>293</ele>
        <time>2011-06-23T00:41:57Z</time>
      </trkpt>
      <trkpt lat="48.56298" lon="6.17771">
        <ele>294</ele>
        <time>2011-06-23T00:42:03Z</time>
      </trkpt>
      <trkpt lat="48.5627" lon="6.17796">
        <ele>295</ele>
        <time>2011-06-23T00:42:09Z</time>
      </trkpt>
      <trkpt lat="48.56257" lon="6.17822">
        <ele>295</ele>
        <time>2011-06-23T00:42:12Z</time>
      </trkpt>
      <trkpt lat="48.56249" lon="6.1785">
        <ele>295</ele>
        <time>2011-06-23T00:42:15Z</time>
      </trkpt>
      <trkpt lat="48.56248" lon="6.17886">
        <ele>295</ele>
        <time>2011-06-23T00:42:19Z</time>
      </trkpt>
      <trkpt lat="48.56264" lon="6.17971">
        <ele>296</ele>
        <time>2011-06-23T00:42:28Z</time>
      </trkpt>
      <trkpt lat="48.56263" lon="6.18003">
        <ele>297</ele>
        <time>2011-06-23T00:42:34Z</time>
      </trkpt>
      <trkpt lat="48.56258" lon="6.18028">
        <ele>298</ele>
        <time>2011-06-23T00:42:39Z</time>
      </trkpt>
      <trkpt lat="48.56214" lon="6.18122">
        <ele>303</ele>
        <time>2011-06-23T00:43:00Z</time>
      </trkpt>
      <trkpt lat="48.56152" lon="6.18221">
        <ele>306</ele>
        <time>2011-06-23T00:43:19Z</time>
      </trkpt>
      <trkpt lat="48.56091" lon="6.18344">
        <ele>310</ele>
        <time>2011-06-23T00:43:42Z</time>
      </trkpt>
      <trkpt lat="48.56091" lon="6.18351">
        <ele>310</ele>
        <time>2011-06-23T00:43:43Z</time>
      </trkpt>
      <trkpt lat="48.55997" lon="6.18525">
        <ele>313</ele>
        <time>2011-06-23T00:44:10Z</time>
      </trkpt>
      <trkpt lat="48.55948" lon="6.18458">
        <ele>315</ele>
        <time>2011-06-23T00:44:25Z</time>
      </trkpt>
      <trkpt lat="48.55939" lon="6.1844">
        <ele>315</ele>
        <time>2011-06-23T00:44:28Z</time>
      </trkpt>
      <trkpt lat="48.55884" lon="6.18295">
        <ele>320</ele>
        <time>2011-06-23T00:44:52Z</time>
      </trkpt>
      <trkpt lat="48.55877" lon="6.18268">
        <ele>319</ele>
        <time>2011-06-23T00:44:55Z</time>
      </trkpt>
      <trkpt lat="48.55874" lon="6.18231">
        <ele>319</ele>
        <time>2011-06-23T00:44:58Z</time>
      </trkpt>
      <trkpt lat="48.55877" lon="6.17731">
        <ele>314</ele>
        <time>2011-06-23T00:45:42Z</time>
      </trkpt>
      <trkpt lat="48.55869" lon="6.17686">
        <ele>314</ele>
        <time>2011-06-23T00:45:47Z</time>
      </trkpt>
      <trkpt lat="48.55834" lon="6.17569">
        <ele>314</ele>
        <time>2011-06-23T00:45:58Z</time>
      </trkpt>
      <trkpt lat="48.55803" lon="6.17491">
        <ele>314</ele>
        <time>2011-06-23T00:46:06Z</time>
      </trkpt>
      <trkpt lat="48.55708" lon="6.17348">
        <ele>314</ele>
        <time>2011-06-23T00:46:24Z</time>
      </trkpt>
      <trkpt lat="48.55616" lon="6.17189">
        <ele>316</ele>
        <time>2011-06-23T00:46:47Z</time>
      </trkpt>
      <trkpt lat="48.55566" lon="6.17068">
        <ele>316</ele>
        <time>2011-06-23T00:47:00Z</time>
      </trkpt>
      <trkpt lat="48.55522" lon="6.16941">
        <ele>316</ele>
        <time>2011-06-23T00:47:13Z</time>
      </trkpt>
      <trkpt lat="48.55306" lon="6.16143">
        <ele>313</ele>
        <time>2011-06-23T00:48:29Z</time>
      </trkpt>
      <trkpt lat="48.55204" lon="6.15837">
        <ele>309</ele>
        <time>2011-06-23T00:48:59Z</time>
      </trkpt>
      <trkpt lat="48.55197" lon="6.15789">
        <ele>309</ele>
        <time>2011-06-23T00:49:04Z</time>
      </trkpt>
      <trkpt lat="48.5518" lon="6.1559">
        <ele>309</ele>
        <time>2011-06-23T00:49:21Z</time>
      </trkpt>
      <trkpt lat="48.55175" lon="6.15557">
        <ele>309</ele>
        <time>2011-06-23T00:49:24Z</time>
      </trkpt>
      <trkpt lat="48.5516" lon="6.15505">
        <ele>309</ele>
        <time>2011-06-23T00:49:29Z</time>
      </trkpt>
      <trkpt lat="48.55125" lon="6.15408">
        <ele>309</ele>
        <time>2011-06-23T00:49:39Z</time>
      </trkpt>
      <trkpt lat="48.55082" lon="6.15309">
        <ele>307</ele>
        <time>2011-06-23T00:49:50Z</time>
      </trkpt>
      <trkpt lat="48.54814" lon="6.14826">
        <ele>301</ele>
        <time>2011-06-23T00:50:45Z</time>
      </trkpt>
      <trkpt lat="48.54735" lon="6.14712">
        <ele>298</ele>
        <time>2011-06-23T00:51:00Z</time>
      </trkpt>
      <trkpt lat="48.54714" lon="6.14651">
        <ele>294</ele>
        <time>2011-06-23T00:51:06Z</time>
      </trkpt>
      <trkpt lat="48.54688" lon="6.14555">
        <ele>290</ele>
        <time>2011-06-23T00:51:15Z</time>
      </trkpt>
      <trkpt lat="48.54687" lon="6.14536">
        <ele>289</ele>
        <time>2011-06-23T00:51:17Z</time>
      </trkpt>
      <trkpt lat="48.54696" lon="6.14448">
        <ele>286</ele>
        <time>2011-06-23T00:51:25Z</time>
      </trkpt>
      <trkpt lat="48.54726" lon="6.14257">
        <ele>279</ele>
        <time>2011-06-23T00:51:42Z</time>
      </trkpt>
      <trkpt lat="48.54733" lon="6.14179">
        <ele>275</ele>
        <time>2011-06-23T00:51:49Z</time>
      </trkpt>
      <trkpt lat="48.54732" lon="6.14101">
        <ele>272</ele>
        <time>2011-06-23T00:51:56Z</time>
      </trkpt>
      <trkpt lat="48.54729" lon="6.14072">
        <ele>270</ele>
        <time>2011-06-23T00:51:58Z</time>
      </trkpt>
      <trkpt lat="48.54717" lon="6.14053">
        <ele>269</ele>
        <time>2011-06-23T00:52:01Z</time>
      </trkpt>
      <trkpt lat="48.54707" lon="6.14051">
        <ele>269</ele>
        <time>2011-06-23T00:52:02Z</time>
      </trkpt>
      <trkpt lat="48.54694" lon="6.14059">
        <ele>268</ele>
        <time>2011-06-23T00:52:04Z</time>
      </trkpt>
      <trkpt lat="48.54661" lon="6.14127">
        <ele>265</ele>
        <time>2011-06-23T00:52:11Z</time>
      </trkpt>
      <trkpt lat="48.54648" lon="6.14135">
        <ele>264</ele>
        <time>2011-06-23T00:52:13Z</time>
      </trkpt>
      <trkpt lat="48.54632" lon="6.14131">
        <ele>264</ele>
        <time>2011-06-23T00:52:16Z</time>
      </trkpt>
      <trkpt lat="48.54587" lon="6.14105">
        <ele>258</ele>
        <time>2011-06-23T00:52:22Z</time>
      </trkpt>
      <trkpt lat="48.54567" lon="6.14105">
        <ele>256</ele>
        <time>2011-06-23T00:52:25Z</time>
      </trkpt>
      <trkpt lat="48.54567" lon="6.14105">
        <ele>256</ele>
        <time>2011-06-23T00:52:26Z</time>
      </trkpt>
      <trkpt lat="48.54514" lon="6.14128">
        <ele>252</ele>
        <time>2011-06-23T00:52:33Z</time>
      </trkpt>
      <trkpt lat="48.54459" lon="6.1416">
        <ele>249</ele>
        <time>2011-06-23T00:52:41Z</time>
      </trkpt>
      <trkpt lat="48.54416" lon="6.14221">
        <ele>245</ele>
        <time>2011-06-23T00:52:49Z</time>
      </trkpt>
      <trkpt lat="48.54401" lon="6.14191">
        <ele>244</ele>
        <time>2011-06-23T00:52:52Z</time>
      </trkpt>
      <trkpt lat="48.54374" lon="6.14153">
        <ele>242</ele>
        <time>2011-06-23T00:52:57Z</time>
      </trkpt>
      <trkpt lat="48.54289" lon="6.14065">
        <ele>237</ele>
        <time>2011-06-23T00:53:11Z</time>
      </trkpt>
      <trkpt lat="48.54261" lon="6.14037">
        <ele>235</ele>
        <time>2011-06-23T00:53:15Z</time>
      </trkpt>
      <trkpt lat="48.54224" lon="6.14024">
        <ele>234</ele>
        <time>2011-06-23T00:53:20Z</time>
      </trkpt>
      <trkpt lat="48.54199" lon="6.14006">
        <ele>233</ele>
        <time>2011-06-23T00:53:24Z</time>
      </trkpt>
      <trkpt lat="48.54157" lon="6.14152">
        <ele>234</ele>
        <time>2011-06-23T00:53:41Z</time>
      </trkpt>
      <trkpt lat="48.54129" lon="6.14217">
        <ele>234</ele>
        <time>2011-06-23T00:53:48Z</time>
      </trkpt>
      <trkpt lat="48.54085" lon="6.14294">
        <ele>235</ele>
        <time>2011-06-23T00:53:59Z</time>
      </trkpt>
      <trkpt lat="48.54051" lon="6.1433">
        <ele>235</ele>
        <time>2011-06-23T00:54:05Z</time>
      </trkpt>
      <trkpt lat="48.54" lon="6.14371">
        <ele>236</ele>
        <time>2011-06-23T00:54:14Z</time>
      </trkpt>
      <trkpt lat="48.53815" lon="6.14499">
        <ele>238</ele>
        <time>2011-06-23T00:54:46Z</time>
      </trkpt>
      <trkpt lat="48.53616" lon="6.14611">
        <ele>241</ele>
        <time>2011-06-23T00:55:22Z</time>
      </trkpt>
      <trkpt lat="48.53547" lon="6.14674">
        <ele>241</ele>
        <time>2011-06-23T00:55:34Z</time>
      </trkpt>
      <trkpt lat="48.53471" lon="6.14763">
        <ele>242</ele>
        <time>2011-06-23T00:55:48Z</time>
      </trkpt>
      <trkpt lat="48.53361" lon="6.14878">
        <ele>246</ele>
        <time>2011-06-23T00:56:15Z</time>
      </trkpt>
      <trkpt lat="48.5334" lon="6.14888">
        <ele>245</ele>
        <time>2011-06-23T00:56:18Z</time>
      </trkpt>
      <trkpt lat="48.53211" lon="6.14923">
        <ele>240</ele>
        <time>2011-06-23T00:56:36Z</time>
      </trkpt>
      <trkpt lat="48.53194" lon="6.14933">
        <ele>239</ele>
        <time>2011-06-23T00:56:38Z</time>
      </trkpt>
      <trkpt lat="48.53174" lon="6.14961">
        <ele>239</ele>
        <time>2011-06-23T00:56:42Z</time>
      </trkpt>
      <trkpt lat="48.53154" lon="6.15025">
        <ele>238</ele>
        <time>2011-06-23T00:56:48Z</time>
      </trkpt>
      <trkpt lat="48.53147" lon="6.15081">
        <ele>238</ele>
        <time>2011-06-23T00:56:53Z</time>
      </trkpt>
      <trkpt lat="48.53162" lon="6.1522">
        <ele>233</ele>
        <time>2011-06-23T00:57:06Z</time>
      </trkpt>
      <trkpt lat="48.53161" lon="6.15278">
        <ele>232</ele>
        <time>2011-06-23T00:57:11Z</time>
      </trkpt>
      <trkpt lat="48.53154" lon="6.1533">
        <ele>232</ele>
        <time>2011-06-23T00:57:16Z</time>
      </trkpt>
      <trkpt lat="48.53156" lon="6.1537">
        <ele>232</ele>
        <time>2011-06-23T00:57:19Z</time>
      </trkpt>
      <trkpt lat="48.53192" lon="6.15584">
        <ele>233</ele>
        <time>2011-06-23T00:57:41Z</time>
      </trkpt>
      <trkpt lat="48.53195" lon="6.15636">
        <ele>235</ele>
        <time>2011-06-23T00:57:51Z</time>
      </trkpt>
      <trkpt lat="48.53193" lon="6.15721">
        <ele>239</ele>
        <time>2011-06-23T00:58:08Z</time>
      </trkpt>
      <trkpt lat="48.53191" lon="6.15748">
        <ele>239</ele>
        <time>2011-06-23T00:58:12Z</time>
      </trkpt>
      <trkpt lat="48.53181" lon="6.15793">
        <ele>241</ele>
        <time>2011-06-23T00:58:20Z</time>
      </trkpt>
      <trkpt lat="48.53146" lon="6.15898">
        <ele>245</ele>
        <time>2011-06-23T00:58:39Z</time>
      </trkpt>
      <trkpt lat="48.53103" lon="6.15956">
        <ele>241</ele>
        <time>2011-06-23T00:58:47Z</time>
      </trkpt>
      <trkpt lat="48.53042" lon="6.16015">
        <ele>236</ele>
        <time>2011-06-23T00:58:56Z</time>
      </trkpt>
      <trkpt lat="48.53016" lon="6.16027">
        <ele>234</ele>
        <time>2011-06-23T00:59:00Z</time>
      </trkpt>
      <trkpt lat="48.52945" lon="6.16042">
        <ele>229</ele>
        <time>2011-06-23T00:59:10Z</time>
      </trkpt>
      <trkpt lat="48.52903" lon="6.16082">
        <ele>229</ele>
        <time>2011-06-23T00:59:16Z</time>
      </trkpt>
      <trkpt lat="48.52825" lon="6.16134">
        <ele>229</ele>
        <time>2011-06-23T00:59:28Z</time>
      </trkpt>
      <trkpt lat="48.52782" lon="6.16156">
        <ele>229</ele>
        <time>2011-06-23T00:59:35Z</time>
      </trkpt>
      <trkpt lat="48.52737" lon="6.16167">
        <ele>230</ele>
        <time>2011-06-23T00:59:42Z</time>
      </trkpt>
      <trkpt lat="48.527" lon="6.16164">
        <ele>229</ele>
        <time>2011-06-23T00:59:47Z</time>
      </trkpt>
      <trkpt lat="48.52661" lon="6.16145">
        <ele>229</ele>
        <time>2011-06-23T00:59:53Z</time>
      </trkpt>
      <trkpt lat="48.52539" lon="6.1604">
        <ele>229</ele>
        <time>2011-06-23T01:00:11Z</time>
      </trkpt>
      <trkpt lat="48.52502" lon="6.16013">
        <ele>229</ele>
        <time>2011-06-23T01:00:18Z</time>
      </trkpt>
      <trkpt lat="48.52481" lon="6.1601">
        <ele>229</ele>
        <time>2011-06-23T01:00:21Z</time>
      </trkpt>
      <trkpt lat="48.52462" lon="6.16023">
        <ele>230</ele>
        <time>2011-06-23T01:00:25Z</time>
      </trkpt>
      <trkpt lat="48.52462" lon="6.16023">
        <ele>230</ele>
        <time>2011-06-23T01:00:26Z</time>
      </trkpt>
      <trkpt lat="48.52392" lon="6.16085">
        <ele>229</ele>
        <time>2011-06-23T01:00:37Z</time>
      </trkpt>
      <trkpt lat="48.52389" lon="6.15905">
        <ele>229</ele>
        <time>2011-06-23T01:00:53Z</time>
      </trkpt>
      <trkpt lat="48.52392" lon="6.15891">
        <ele>229</ele>
        <time>2011-06-23T01:00:54Z</time>
      </trkpt>
      <trkpt lat="48.524" lon="6.15887">
        <ele>229</ele>
        <time>2011-06-23T01:00:55Z</time>
      </trkpt>
      <trkpt lat="48.52456" lon="6.159">
        <ele>229</ele>
        <time>2011-06-23T01:01:03Z</time>
      </trkpt>
      <trkpt lat="48.52469" lon="6.15896">
        <ele>229</ele>
        <time>2011-06-23T01:01:05Z</time>
      </trkpt>
      <trkpt lat="48.52607" lon="6.15708">
        <ele>230</ele>
        <time>2011-06-23T01:01:32Z</time>
      </trkpt>
      <trkpt lat="48.52678" lon="6.15647">
        <ele>230</ele>
        <time>2011-06-23T01:01:43Z</time>
      </trkpt>
      <trkpt lat="48.52719" lon="6.15604">
        <ele>230</ele>
        <time>2011-06-23T01:01:49Z</time>
      </trkpt>
      <trkpt lat="48.52775" lon="6.15522">
        <ele>231</ele>
        <time>2011-06-23T01:02:02Z</time>
      </trkpt>
      <trkpt lat="48.5281" lon="6.15458">
        <ele>232</ele>
        <time>2011-06-23T01:02:12Z</time>
      </trkpt>
      <trkpt lat="48.52809" lon="6.15436">
        <ele>232</ele>
        <time>2011-06-23T01:02:14Z</time>
      </trkpt>
      <trkpt lat="48.52802" lon="6.15411">
        <ele>232</ele>
        <time>2011-06-23T01:02:17Z</time>
      </trkpt>
      <trkpt lat="48.52817" lon="6.15334">
        <ele>232</ele>
        <time>2011-06-23T01:02:24Z</time>
      </trkpt>
      <trkpt lat="48.52825" lon="6.15214">
        <ele>233</ele>
        <time>2011-06-23T01:02:36Z</time>
      </trkpt>
      <trkpt lat="48.52838" lon="6.14859">
        <ele>230</ele>
        <time>2011-06-23T01:03:08Z</time>
      </trkpt>
      <trkpt lat="48.52825" lon="6.14679">
        <ele>231</ele>
        <time>2011-06-23T01:03:26Z</time>
      </trkpt>
      <trkpt lat="48.52828" lon="6.1457">
        <ele>233</ele>
        <time>2011-06-23T01:03:42Z</time>
      </trkpt>
      <trkpt lat="48.52835" lon="6.14522">
        <ele>235</ele>
        <time>2011-06-23T01:03:50Z</time>
      </trkpt>
      <trkpt lat="48.52851" lon="6.14454">
        <ele>235</ele>
        <time>2011-06-23T01:03:59Z</time>
      </trkpt>
      <trkpt lat="48.52892" lon="6.1432">
        <ele>238</ele>
        <time>2011-06-23T01:04:16Z</time>
      </trkpt>
      <trkpt lat="48.52921" lon="6.14206">
        <ele>235</ele>
        <time>2011-06-23T01:04:27Z</time>
      </trkpt>
      <trkpt lat="48.52917" lon="6.14164">
        <ele>235</ele>
        <time>2011-06-23T01:04:31Z</time>
      </trkpt>
      <trkpt lat="48.52885" lon="6.1404">
        <ele>235</ele>
        <time>2011-06-23T01:04:43Z</time>
      </trkpt>
      <trkpt lat="48.52883" lon="6.14015">
        <ele>235</ele>
        <time>2011-06-23T01:04:45Z</time>
      </trkpt>
      <trkpt lat="48.52974" lon="6.1366">
        <ele>229</ele>
        <time>2011-06-23T01:05:19Z</time>
      </trkpt>
      <trkpt lat="48.52988" lon="6.13636">
        <ele>230</ele>
        <time>2011-06-23T01:05:25Z</time>
      </trkpt>
      <trkpt lat="48.53101" lon="6.1351">
        <ele>239</ele>
        <time>2011-06-23T01:06:04Z</time>
      </trkpt>
      <trkpt lat="48.53128" lon="6.13463">
        <ele>244</ele>
        <time>2011-06-23T01:06:24Z</time>
      </trkpt>
      <trkpt lat="48.53168" lon="6.1337">
        <ele>255</ele>
        <time>2011-06-23T01:06:58Z</time>
      </trkpt>
      <trkpt lat="48.53199" lon="6.13322">
        <ele>260</ele>
        <time>2011-06-23T01:07:17Z</time>
      </trkpt>
      <trkpt lat="48.5321" lon="6.13298">
        <ele>263</ele>
        <time>2011-06-23T01:07:26Z</time>
      </trkpt>
      <trkpt lat="48.5321" lon="6.13298">
        <ele>263</ele>
        <time>2011-06-23T01:07:27Z</time>
      </trkpt>
      <trkpt lat="48.53238" lon="6.13232">
        <ele>268</ele>
        <time>2011-06-23T01:07:46Z</time>
      </trkpt>
      <trkpt lat="48.53242" lon="6.13229">
        <ele>268</ele>
        <time>2011-06-23T01:07:48Z</time>
      </trkpt>
      <trkpt lat="48.53238" lon="6.13154">
        <ele>274</ele>
        <time>2011-06-23T01:08:07Z</time>
      </trkpt>
      <trkpt lat="48.53215" lon="6.13047">
        <ele>279</ele>
        <time>2011-06-23T01:08:31Z</time>
      </trkpt>
      <trkpt lat="48.53201" lon="6.13011">
        <ele>282</ele>
        <time>2011-06-23T01:08:40Z</time>
      </trkpt>
      <trkpt lat="48.53231" lon="6.12996">
        <ele>283</ele>
        <time>2011-06-23T01:08:48Z</time>
      </trkpt>
      <trkpt lat="48.53272" lon="6.12963">
        <ele>285</ele>
        <time>2011-06-23T01:08:59Z</time>
      </trkpt>
      <trkpt lat="48.53311" lon="6.12897">
        <ele>288</ele>
        <time>2011-06-23T01:09:13Z</time>
      </trkpt>
      <trkpt lat="48.53378" lon="6.12816">
        <ele>285</ele>
        <time>2011-06-23T01:09:24Z</time>
      </trkpt>
      <trkpt lat="48.53404" lon="6.12775">
        <ele>285</ele>
        <time>2011-06-23T01:09:29Z</time>
      </trkpt>
      <trkpt lat="48.53403" lon="6.12751">
        <ele>285</ele>
        <time>2011-06-23T01:09:32Z</time>
      </trkpt>
      <trkpt lat="48.53397" lon="6.12723">
        <ele>285</ele>
        <time>2011-06-23T01:09:35Z</time>
      </trkpt>
      <trkpt lat="48.5329" lon="6.12445">
        <ele>288</ele>
        <time>2011-06-23T01:10:10Z</time>
      </trkpt>
      <trkpt lat="48.53282" lon="6.1241">
        <ele>288</ele>
        <time>2011-06-23T01:10:13Z</time>
      </trkpt>
      <trkpt lat="48.53282" lon="6.1238">
        <ele>288</ele>
        <time>2011-06-23T01:10:16Z</time>
      </trkpt>
      <trkpt lat="48.5332" lon="6.12227">
        <ele>288</ele>
        <time>2011-06-23T01:10:30Z</time>
      </trkpt>
      <trkpt lat="48.53331" lon="6.12164">
        <ele>288</ele>
        <time>2011-06-23T01:10:38Z</time>
      </trkpt>
      <trkpt lat="48.53344" lon="6.12068">
        <ele>290</ele>
        <time>2011-06-23T01:10:49Z</time>
      </trkpt>
      <trkpt lat="48.53353" lon="6.11903">
        <ele>291</ele>
        <time>2011-06-23T01:11:06Z</time>
      </trkpt>
      <trkpt lat="48.53351" lon="6.11847">
        <ele>291</ele>
        <time>2011-06-23T01:11:13Z</time>
      </trkpt>
      <trkpt lat="48.5334" lon="6.11738">
        <ele>293</ele>
        <time>2011-06-23T01:11:26Z</time>
      </trkpt>
      <trkpt lat="48.53307" lon="6.11501">
        <ele>297</ele>
        <time>2011-06-23T01:11:57Z</time>
      </trkpt>
      <trkpt lat="48.53304" lon="6.11427">
        <ele>298</ele>
        <time>2011-06-23T01:12:07Z</time>
      </trkpt>
      <trkpt lat="48.53307" lon="6.11319">
        <ele>301</ele>
        <time>2011-06-23T01:12:22Z</time>
      </trkpt>
      <trkpt lat="48.53316" lon="6.11261">
        <ele>301</ele>
        <time>2011-06-23T01:12:28Z</time>
      </trkpt>
      <trkpt lat="48.53374" lon="6.11065">
        <ele>301</ele>
        <time>2011-06-23T01:12:47Z</time>
      </trkpt>
      <trkpt lat="48.53395" lon="6.10972">
        <ele>300</ele>
        <time>2011-06-23T01:12:55Z</time>
      </trkpt>
      <trkpt lat="48.534" lon="6.10939">
        <ele>300</ele>
        <time>2011-06-23T01:12:58Z</time>
      </trkpt>
      <trkpt lat="48.53403" lon="6.10878">
        <ele>300</ele>
        <time>2011-06-23T01:13:04Z</time>
      </trkpt>
      <trkpt lat="48.5344" lon="6.10641">
        <ele>297</ele>
        <time>2011-06-23T01:13:25Z</time>
      </trkpt>
      <trkpt lat="48.53455" lon="6.10451">
        <ele>296</ele>
        <time>2011-06-23T01:13:42Z</time>
      </trkpt>
      <trkpt lat="48.53478" lon="6.10325">
        <ele>293</ele>
        <time>2011-06-23T01:13:54Z</time>
      </trkpt>
      <trkpt lat="48.53479" lon="6.10275">
        <ele>292</ele>
        <time>2011-06-23T01:13:58Z</time>
      </trkpt>
      <trkpt lat="48.53463" lon="6.10111">
        <ele>291</ele>
        <time>2011-06-23T01:14:13Z</time>
      </trkpt>
      <trkpt lat="48.53458" lon="6.1008">
        <ele>291</ele>
        <time>2011-06-23T01:14:16Z</time>
      </trkpt>
      <trkpt lat="48.53444" lon="6.10039">
        <ele>291</ele>
        <time>2011-06-23T01:14:21Z</time>
      </trkpt>
      <trkpt lat="48.53423" lon="6.09992">
        <ele>291</ele>
        <time>2011-06-23T01:14:27Z</time>
      </trkpt>
      <trkpt lat="48.53416" lon="6.09955">
        <ele>292</ele>
        <time>2011-06-23T01:14:31Z</time>
      </trkpt>
      <trkpt lat="48.53427" lon="6.09844">
        <ele>291</ele>
        <time>2011-06-23T01:14:41Z</time>
      </trkpt>
      <trkpt lat="48.53427" lon="6.09757">
        <ele>291</ele>
        <time>2011-06-23T01:14:48Z</time>
      </trkpt>
      <trkpt lat="48.53416" lon="6.09625">
        <ele>289</ele>
        <time>2011-06-23T01:15:00Z</time>
      </trkpt>
      <trkpt lat="48.534" lon="6.0951">
        <ele>288</ele>
        <time>2011-06-23T01:15:10Z</time>
      </trkpt>
      <trkpt lat="48.53392" lon="6.09421">
        <ele>286</ele>
        <time>2011-06-23T01:15:18Z</time>
      </trkpt>
      <trkpt lat="48.53396" lon="6.09358">
        <ele>286</ele>
        <time>2011-06-23T01:15:24Z</time>
      </trkpt>
      <trkpt lat="48.53411" lon="6.09278">
        <ele>284</ele>
        <time>2011-06-23T01:15:31Z</time>
      </trkpt>
      <trkpt lat="48.53411" lon="6.09278">
        <ele>284</ele>
        <time>2011-06-23T01:15:32Z</time>
      </trkpt>
      <trkpt lat="48.53415" lon="6.09246">
        <ele>283</ele>
        <time>2011-06-23T01:15:35Z</time>
      </trkpt>
      <trkpt lat="48.53412" lon="6.09199">
        <ele>282</ele>
        <time>2011-06-23T01:15:39Z</time>
      </trkpt>
      <trkpt lat="48.53426" lon="6.09199">
        <ele>281</ele>
        <time>2011-06-23T01:15:41Z</time>
      </trkpt>
      <trkpt lat="48.53472" lon="6.09178">
        <ele>280</ele>
        <time>2011-06-23T01:15:48Z</time>
      </trkpt>
      <trkpt lat="48.53497" lon="6.09151">
        <ele>278</ele>
        <time>2011-06-23T01:15:52Z</time>
      </trkpt>
      <trkpt lat="48.53545" lon="6.09043">
        <ele>276</ele>
        <time>2011-06-23T01:16:03Z</time>
      </trkpt>
      <trkpt lat="48.53581" lon="6.08935">
        <ele>268</ele>
        <time>2011-06-23T01:16:14Z</time>
      </trkpt>
      <trkpt lat="48.53591" lon="6.08913">
        <ele>267</ele>
        <time>2011-06-23T01:16:16Z</time>
      </trkpt>
      <trkpt lat="48.53602" lon="6.08902">
        <ele>266</ele>
        <time>2011-06-23T01:16:18Z</time>
      </trkpt>
      <trkpt lat="48.53603" lon="6.08889">
        <ele>265</ele>
        <time>2011-06-23T01:16:19Z</time>
      </trkpt>
      <trkpt lat="48.53621" lon="6.08836">
        <ele>263</ele>
        <time>2011-06-23T01:16:25Z</time>
      </trkpt>
      <trkpt lat="48.53633" lon="6.0878">
        <ele>262</ele>
        <time>2011-06-23T01:16:30Z</time>
      </trkpt>
      <trkpt lat="48.53641" lon="6.08697">
        <ele>266</ele>
        <time>2011-06-23T01:16:48Z</time>
      </trkpt>
      <trkpt lat="48.53642" lon="6.0863">
        <ele>270</ele>
        <time>2011-06-23T01:17:02Z</time>
      </trkpt>
      <trkpt lat="48.5364" lon="6.08609">
        <ele>270</ele>
        <time>2011-06-23T01:17:06Z</time>
      </trkpt>
      <trkpt lat="48.53598" lon="6.08504">
        <ele>274</ele>
        <time>2011-06-23T01:17:25Z</time>
      </trkpt>
      <trkpt lat="48.5359" lon="6.08471">
        <ele>274</ele>
        <time>2011-06-23T01:17:28Z</time>
      </trkpt>
      <trkpt lat="48.53586" lon="6.08379">
        <ele>274</ele>
        <time>2011-06-23T01:17:38Z</time>
      </trkpt>
      <trkpt lat="48.53577" lon="6.08314">
        <ele>275</ele>
        <time>2011-06-23T01:17:44Z</time>
      </trkpt>
      <trkpt lat="48.53496" lon="6.0806">
        <ele>270</ele>
        <time>2011-06-23T01:18:09Z</time>
      </trkpt>
      <trkpt lat="48.53472" lon="6.07998">
        <ele>269</ele>
        <time>2011-06-23T01:18:15Z</time>
      </trkpt>
      <trkpt lat="48.53439" lon="6.07942">
        <ele>268</ele>
        <time>2011-06-23T01:18:22Z</time>
      </trkpt>
      <trkpt lat="48.53388" lon="6.07891">
        <ele>268</ele>
        <time>2011-06-23T01:18:32Z</time>
      </trkpt>
      <trkpt lat="48.53372" lon="6.07863">
        <ele>268</ele>
        <time>2011-06-23T01:18:36Z</time>
      </trkpt>
      <trkpt lat="48.53367" lon="6.07833">
        <ele>269</ele>
        <time>2011-06-23T01:18:39Z</time>
      </trkpt>
      <trkpt lat="48.53373" lon="6.07757">
        <ele>270</ele>
        <time>2011-06-23T01:18:49Z</time>
      </trkpt>
      <trkpt lat="48.5337" lon="6.07723">
        <ele>271</ele>
        <time>2011-06-23T01:18:54Z</time>
      </trkpt>
      <trkpt lat="48.53319" lon="6.07566">
        <ele>275</ele>
        <time>2011-06-23T01:19:18Z</time>
      </trkpt>
      <trkpt lat="48.53262" lon="6.0741">
        <ele>277</ele>
        <time>2011-06-23T01:19:39Z</time>
      </trkpt>
      <trkpt lat="48.53256" lon="6.07387">
        <ele>277</ele>
        <time>2011-06-23T01:19:41Z</time>
      </trkpt>
      <trkpt lat="48.5325" lon="6.07316">
        <ele>277</ele>
        <time>2011-06-23T01:19:49Z</time>
      </trkpt>
      <trkpt lat="48.53244" lon="6.07286">
        <ele>277</ele>
        <time>2011-06-23T01:19:52Z</time>
      </trkpt>
      <trkpt lat="48.53178" lon="6.07112">
        <ele>279</ele>
        <time>2011-06-23T01:20:13Z</time>
      </trkpt>
      <trkpt lat="48.53218" lon="6.07028">
        <ele>281</ele>
        <time>2011-06-23T01:20:28Z</time>
      </trkpt>
      <trkpt lat="48.53221" lon="6.06967">
        <ele>283</ele>
        <time>2011-06-23T01:20:37Z</time>
      </trkpt>
      <trkpt lat="48.5321" lon="6.06909">
        <ele>285</ele>
        <time>2011-06-23T01:20:48Z</time>
      </trkpt>
      <trkpt lat="48.53152" lon="6.06775">
        <ele>291</ele>
        <time>2011-06-23T01:21:16Z</time>
      </trkpt>
      <trkpt lat="48.53152" lon="6.06775">
        <ele>291</ele>
        <time>2011-06-23T01:21:17Z</time>
      </trkpt>
      <trkpt lat="48.53129" lon="6.06708">
        <ele>290</ele>
        <time>2011-06-23T01:21:23Z</time>
      </trkpt>
      <trkpt lat="48.53128" lon="6.06683">
        <ele>290</ele>
        <time>2011-06-23T01:21:26Z</time>
      </trkpt>
      <trkpt lat="48.53142" lon="6.06648">
        <ele>290</ele>
        <time>2011-06-23T01:21:29Z</time>
      </trkpt>
      <trkpt lat="48.53139" lon="6.06635">
        <ele>290</ele>
        <time>2011-06-23T01:21:30Z</time>
      </trkpt>
      <trkpt lat="48.53006" lon="6.06374">
        <ele>286</ele>
        <time>2011-06-23T01:22:00Z</time>
      </trkpt>
      <trkpt lat="48.52975" lon="6.06271">
        <ele>284</ele>
        <time>2011-06-23T01:22:10Z</time>
      </trkpt>
      <trkpt lat="48.52964" lon="6.06245">
        <ele>284</ele>
        <time>2011-06-23T01:22:12Z</time>
      </trkpt>
      <trkpt lat="48.52948" lon="6.06218">
        <ele>284</ele>
        <time>2011-06-23T01:22:16Z</time>
      </trkpt>
      <trkpt lat="48.52893" lon="6.06146">
        <ele>285</ele>
        <time>2011-06-23T01:22:28Z</time>
      </trkpt>
      <trkpt lat="48.52829" lon="6.06071">
        <ele>285</ele>
        <time>2011-06-23T01:22:40Z</time>
      </trkpt>
      <trkpt lat="48.52808" lon="6.06065">
        <ele>286</ele>
        <time>2011-06-23T01:22:44Z</time>
      </trkpt>
      <trkpt lat="48.52625" lon="6.06082">
        <ele>287</ele>
        <time>2011-06-23T01:23:11Z</time>
      </trkpt>
      <trkpt lat="48.52602" lon="6.06098">
        <ele>286</ele>
        <time>2011-06-23T01:23:14Z</time>
      </trkpt>
      <trkpt lat="48.52542" lon="6.0616">
        <ele>286</ele>
        <time>2011-06-23T01:23:24Z</time>
      </trkpt>
      <trkpt lat="48.52472" lon="6.06202">
        <ele>286</ele>
        <time>2011-06-23T01:23:34Z</time>
      </trkpt>
      <trkpt lat="48.52459" lon="6.06207">
        <ele>286</ele>
        <time>2011-06-23T01:23:35Z</time>
      </trkpt>
      <trkpt lat="48.52438" lon="6.06206">
        <ele>286</ele>
        <time>2011-06-23T01:23:38Z</time>
      </trkpt>
      <trkpt lat="48.524" lon="6.06188">
        <ele>285</ele>
        <time>2011-06-23T01:23:44Z</time>
      </trkpt>
      <trkpt lat="48.52388" lon="6.06187">
        <ele>285</ele>
        <time>2011-06-23T01:23:45Z</time>
      </trkpt>
      <trkpt lat="48.52366" lon="6.06196">
        <ele>285</ele>
        <time>2011-06-23T01:23:48Z</time>
      </trkpt>
      <trkpt lat="48.52323" lon="6.06224">
        <ele>285</ele>
        <time>2011-06-23T01:23:55Z</time>
      </trkpt>
      <trkpt lat="48.52296" lon="6.06229">
        <ele>284</ele>
        <time>2011-06-23T01:23:58Z</time>
      </trkpt>
      <trkpt lat="48.5228" lon="6.06221">
        <ele>284</ele>
        <time>2011-06-23T01:24:00Z</time>
      </trkpt>
      <trkpt lat="48.52252" lon="6.06192">
        <ele>284</ele>
        <time>2011-06-23T01:24:05Z</time>
      </trkpt>
      <trkpt lat="48.52182" lon="6.06064">
        <ele>283</ele>
        <time>2011-06-23T01:24:20Z</time>
      </trkpt>
      <trkpt lat="48.52138" lon="6.06014">
        <ele>282</ele>
        <time>2011-06-23T01:24:27Z</time>
      </trkpt>
      <trkpt lat="48.52083" lon="6.05967">
        <ele>282</ele>
        <time>2011-06-23T01:24:35Z</time>
      </trkpt>
      <trkpt lat="48.51925" lon="6.05916">
        <ele>280</ele>
        <time>2011-06-23T01:24:57Z</time>
      </trkpt>
      <trkpt lat="48.51802" lon="6.05833">
        <ele>279</ele>
        <time>2011-06-23T01:25:15Z</time>
      </trkpt>
      <trkpt lat="48.51728" lon="6.05818">
        <ele>280</ele>
        <time>2011-06-23T01:25:28Z</time>
      </trkpt>
      <trkpt lat="48.51696" lon="6.05804">
        <ele>281</ele>
        <time>2011-06-23T01:25:34Z</time>
      </trkpt>
      <trkpt lat="48.5109" lon="6.05445">
        <ele>290</ele>
        <time>2011-06-23T01:27:23Z</time>
      </trkpt>
      <trkpt lat="48.50958" lon="6.05394">
        <ele>294</ele>
        <time>2011-06-23T01:27:51Z</time>
      </trkpt>
      <trkpt lat="48.50824" lon="6.05311">
        <ele>292</ele>
        <time>2011-06-23T01:28:10Z</time>
      </trkpt>
      <trkpt lat="48.50717" lon="6.05255">
        <ele>293</ele>
        <time>2011-06-23T01:28:27Z</time>
      </trkpt>
      <trkpt lat="48.50557" lon="6.05145">
        <ele>296</ele>
        <time>2011-06-23T01:28:58Z</time>
      </trkpt>
      <trkpt lat="48.50422" lon="6.05103">
        <ele>300</ele>
        <time>2011-06-23T01:29:26Z</time>
      </trkpt>
      <trkpt lat="48.50336" lon="6.05054">
        <ele>300</ele>
        <time>2011-06-23T01:29:38Z</time>
      </trkpt>
      <trkpt lat="48.50289" lon="6.05014">
        <ele>300</ele>
        <time>2011-06-23T01:29:46Z</time>
      </trkpt>
      <trkpt lat="48.5018" lon="6.04849">
        <ele>300</ele>
        <time>2011-06-23T01:30:06Z</time>
      </trkpt>
      <trkpt lat="48.50127" lon="6.04752">
        <ele>298</ele>
        <time>2011-06-23T01:30:17Z</time>
      </trkpt>
      <trkpt lat="48.50082" lon="6.04723">
        <ele>298</ele>
        <time>2011-06-23T01:30:24Z</time>
      </trkpt>
      <trkpt lat="48.50028" lon="6.04668">
        <ele>295</ele>
        <time>2011-06-23T01:30:33Z</time>
      </trkpt>
      <trkpt lat="48.50008" lon="6.04654">
        <ele>295</ele>
        <time>2011-06-23T01:30:36Z</time>
      </trkpt>
      <trkpt lat="48.49967" lon="6.04646">
        <ele>294</ele>
        <time>2011-06-23T01:30:41Z</time>
      </trkpt>
      <trkpt lat="48.49826" lon="6.04634">
        <ele>290</ele>
        <time>2011-06-23T01:31:00Z</time>
      </trkpt>
      <trkpt lat="48.49729" lon="6.04605">
        <ele>288</ele>
        <time>2011-06-23T01:31:13Z</time>
      </trkpt>
      <trkpt lat="48.49643" lon="6.0457">
        <ele>285</ele>
        <time>2011-06-23T01:31:25Z</time>
      </trkpt>
      <trkpt lat="48.49625" lon="6.04567">
        <ele>285</ele>
        <time>2011-06-23T01:31:28Z</time>
      </trkpt>
      <trkpt lat="48.49405" lon="6.04718">
        <ele>284</ele>
        <time>2011-06-23T01:32:00Z</time>
      </trkpt>
      <trkpt lat="48.49384" lon="6.04722">
        <ele>283</ele>
        <time>2011-06-23T01:32:03Z</time>
      </trkpt>
      <trkpt lat="48.49373" lon="6.04713">
        <ele>283</ele>
        <time>2011-06-23T01:32:04Z</time>
      </trkpt>
      <trkpt lat="48.49326" lon="6.0463">
        <ele>283</ele>
        <time>2011-06-23T01:32:14Z</time>
      </trkpt>
      <trkpt lat="48.49515" lon="6.01711">
        <ele>276</ele>
        <time>2011-06-23T01:36:34Z</time>
      </trkpt>
      <trkpt lat="48.49525" lon="6.01661">
        <ele>276</ele>
        <time>2011-06-23T01:36:39Z</time>
      </trkpt>
      <trkpt lat="48.49534" lon="6.01635">
        <ele>276</ele>
        <time>2011-06-23T01:36:42Z</time>
      </trkpt>
      <trkpt lat="48.49569" lon="6.01571">
        <ele>277</ele>
        <time>2011-06-23T01:36:51Z</time>
      </trkpt>
      <trkpt lat="48.49659" lon="6.01462">
        <ele>279</ele>
        <time>2011-06-23T01:37:11Z</time>
      </trkpt>
      <trkpt lat="48.49697" lon="6.01423">
        <ele>280</ele>
        <time>2011-06-23T01:37:20Z</time>
      </trkpt>
      <trkpt lat="48.49747" lon="6.01351">
        <ele>282</ele>
        <time>2011-06-23T01:37:33Z</time>
      </trkpt>
      <trkpt lat="48.49786" lon="6.01305">
        <ele>282</ele>
        <time>2011-06-23T01:37:42Z</time>
      </trkpt>
      <trkpt lat="48.49807" lon="6.01184">
        <ele>284</ele>
        <time>2011-06-23T01:37:56Z</time>
      </trkpt>
      <trkpt lat="48.49819" lon="6.0108">
        <ele>287</ele>
        <time>2011-06-23T01:38:12Z</time>
      </trkpt>
      <trkpt lat="48.49819" lon="6.0108">
        <ele>287</ele>
        <time>2011-06-23T01:38:13Z</time>
      </trkpt>
      <trkpt lat="48.49825" lon="6.01">
        <ele>286</ele>
        <time>2011-06-23T01:38:21Z</time>
      </trkpt>
      <trkpt lat="48.49799" lon="6.00929">
        <ele>285</ele>
        <time>2011-06-23T01:38:28Z</time>
      </trkpt>
      <trkpt lat="48.49794" lon="6.00898">
        <ele>284</ele>
        <time>2011-06-23T01:38:31Z</time>
      </trkpt>
      <trkpt lat="48.49798" lon="6.00762">
        <ele>283</ele>
        <time>2011-06-23T01:38:43Z</time>
      </trkpt>
      <trkpt lat="48.49803" lon="6.00679">
        <ele>283</ele>
        <time>2011-06-23T01:38:50Z</time>
      </trkpt>
      <trkpt lat="48.49849" lon="6.002">
        <ele>284</ele>
        <time>2011-06-23T01:39:35Z</time>
      </trkpt>
      <trkpt lat="48.49865" lon="6.00087">
        <ele>286</ele>
        <time>2011-06-23T01:39:51Z</time>
      </trkpt>
      <trkpt lat="48.49881" lon="6.00011">
        <ele>288</ele>
        <time>2011-06-23T01:40:02Z</time>
      </trkpt>
      <trkpt lat="48.49921" lon="5.99871">
        <ele>288</ele>
        <time>2011-06-23T01:40:16Z</time>
      </trkpt>
      <trkpt lat="48.49973" lon="5.99743">
        <ele>289</ele>
        <time>2011-06-23T01:40:31Z</time>
      </trkpt>
      <trkpt lat="48.5017" lon="5.99364">
        <ele>288</ele>
        <time>2011-06-23T01:41:14Z</time>
      </trkpt>
      <trkpt lat="48.50231" lon="5.99264">
        <ele>289</ele>
        <time>2011-06-23T01:41:28Z</time>
      </trkpt>
      <trkpt lat="48.50274" lon="5.99204">
        <ele>289</ele>
        <time>2011-06-23T01:41:38Z</time>
      </trkpt>
      <trkpt lat="48.50344" lon="5.99119">
        <ele>291</ele>
        <time>2011-06-23T01:41:53Z</time>
      </trkpt>
      <trkpt lat="48.50416" lon="5.99047">
        <ele>291</ele>
        <time>2011-06-23T01:42:07Z</time>
      </trkpt>
      <trkpt lat="48.50591" lon="5.98905">
        <ele>294</ele>
        <time>2011-06-23T01:42:38Z</time>
      </trkpt>
      <trkpt lat="48.50699" lon="5.98826">
        <ele>294</ele>
        <time>2011-06-23T01:42:54Z</time>
      </trkpt>
      <trkpt lat="48.50748" lon="5.98799">
        <ele>294</ele>
        <time>2011-06-23T01:43:02Z</time>
      </trkpt>
      <trkpt lat="48.51033" lon="5.98683">
        <ele>297</ele>
        <time>2011-06-23T01:43:48Z</time>
      </trkpt>
      <trkpt lat="48.51155" lon="5.98602">
        <ele>297</ele>
        <time>2011-06-23T01:44:06Z</time>
      </trkpt>
      <trkpt lat="48.51394" lon="5.98369">
        <ele>298</ele>
        <time>2011-06-23T01:44:46Z</time>
      </trkpt>
      <trkpt lat="48.51487" lon="5.98214">
        <ele>301</ele>
        <time>2011-06-23T01:45:12Z</time>
      </trkpt>
      <trkpt lat="48.51516" lon="5.98178">
        <ele>301</ele>
        <time>2011-06-23T01:45:18Z</time>
      </trkpt>
      <trkpt lat="48.51549" lon="5.98151">
        <ele>301</ele>
        <time>2011-06-23T01:45:24Z</time>
      </trkpt>
      <trkpt lat="48.51626" lon="5.98115">
        <ele>303</ele>
        <time>2011-06-23T01:45:37Z</time>
      </trkpt>
      <trkpt lat="48.51652" lon="5.98098">
        <ele>303</ele>
        <time>2011-06-23T01:45:43Z</time>
      </trkpt>
      <trkpt lat="48.51758" lon="5.98013">
        <ele>306</ele>
        <time>2011-06-23T01:46:04Z</time>
      </trkpt>
      <trkpt lat="48.51777" lon="5.97993">
        <ele>306</ele>
        <time>2011-06-23T01:46:09Z</time>
      </trkpt>
      <trkpt lat="48.519" lon="5.97833">
        <ele>312</ele>
        <time>2011-06-23T01:46:44Z</time>
      </trkpt>
      <trkpt lat="48.5204" lon="5.97559">
        <ele>313</ele>
        <time>2011-06-23T01:47:17Z</time>
      </trkpt>
      <trkpt lat="48.52086" lon="5.975">
        <ele>313</ele>
        <time>2011-06-23T01:47:27Z</time>
      </trkpt>
      <trkpt lat="48.52193" lon="5.97405">
        <ele>316</ele>
        <time>2011-06-23T01:47:48Z</time>
      </trkpt>
      <trkpt lat="48.5225" lon="5.97367">
        <ele>319</ele>
        <time>2011-06-23T01:48:05Z</time>
      </trkpt>
      <trkpt lat="48.52312" lon="5.97349">
        <ele>323</ele>
        <time>2011-06-23T01:48:22Z</time>
      </trkpt>
      <trkpt lat="48.52363" lon="5.97352">
        <ele>326</ele>
        <time>2011-06-23T01:48:37Z</time>
      </trkpt>
      <trkpt lat="48.52434" lon="5.97364">
        <ele>331</ele>
        <time>2011-06-23T01:48:58Z</time>
      </trkpt>
      <trkpt lat="48.52506" lon="5.97389">
        <ele>334</ele>
        <time>2011-06-23T01:49:15Z</time>
      </trkpt>
      <trkpt lat="48.52543" lon="5.97387">
        <ele>336</ele>
        <time>2011-06-23T01:49:24Z</time>
      </trkpt>
      <trkpt lat="48.52586" lon="5.97365">
        <ele>336</ele>
        <time>2011-06-23T01:49:30Z</time>
      </trkpt>
      <trkpt lat="48.52668" lon="5.97288">
        <ele>336</ele>
        <time>2011-06-23T01:49:43Z</time>
      </trkpt>
      <trkpt lat="48.52668" lon="5.97288">
        <ele>336</ele>
        <time>2011-06-23T01:49:44Z</time>
      </trkpt>
      <trkpt lat="48.52771" lon="5.97209">
        <ele>334</ele>
        <time>2011-06-23T01:50:00Z</time>
      </trkpt>
      <trkpt lat="48.52789" lon="5.97217">
        <ele>335</ele>
        <time>2011-06-23T01:50:07Z</time>
      </trkpt>
      <trkpt lat="48.5282" lon="5.97252">
        <ele>339</ele>
        <time>2011-06-23T01:50:20Z</time>
      </trkpt>
      <trkpt lat="48.52841" lon="5.97265">
        <ele>341</ele>
        <time>2011-06-23T01:50:29Z</time>
      </trkpt>
      <trkpt lat="48.52856" lon="5.97298">
        <ele>344</ele>
        <time>2011-06-23T01:50:38Z</time>
      </trkpt>
      <trkpt lat="48.52866" lon="5.97308">
        <ele>345</ele>
        <time>2011-06-23T01:50:42Z</time>
      </trkpt>
      <trkpt lat="48.52921" lon="5.97334">
        <ele>350</ele>
        <time>2011-06-23T01:51:02Z</time>
      </trkpt>
      <trkpt lat="48.53002" lon="5.97342">
        <ele>357</ele>
        <time>2011-06-23T01:51:29Z</time>
      </trkpt>
      <trkpt lat="48.53093" lon="5.97341">
        <ele>359</ele>
        <time>2011-06-23T01:51:46Z</time>
      </trkpt>
      <trkpt lat="48.53135" lon="5.97355">
        <ele>362</ele>
        <time>2011-06-23T01:52:00Z</time>
      </trkpt>
      <trkpt lat="48.53158" lon="5.97381">
        <ele>364</ele>
        <time>2011-06-23T01:52:09Z</time>
      </trkpt>
      <trkpt lat="48.53218" lon="5.97493">
        <ele>372</ele>
        <time>2011-06-23T01:52:40Z</time>
      </trkpt>
      <trkpt lat="48.53229" lon="5.975">
        <ele>372</ele>
        <time>2011-06-23T01:52:42Z</time>
      </trkpt>
      <trkpt lat="48.53233" lon="5.97525">
        <ele>372</ele>
        <time>2011-06-23T01:52:45Z</time>
      </trkpt>
      <trkpt lat="48.53277" lon="5.97623">
        <ele>374</ele>
        <time>2011-06-23T01:52:59Z</time>
      </trkpt>
      <trkpt lat="48.53416" lon="5.97871">
        <ele>363</ele>
        <time>2011-06-23T01:53:28Z</time>
      </trkpt>
      <trkpt lat="48.53436" lon="5.97972">
        <ele>360</ele>
        <time>2011-06-23T01:53:37Z</time>
      </trkpt>
      <trkpt lat="48.53437" lon="5.98071">
        <ele>358</ele>
        <time>2011-06-23T01:53:46Z</time>
      </trkpt>
      <trkpt lat="48.53445" lon="5.98096">
        <ele>357</ele>
        <time>2011-06-23T01:53:48Z</time>
      </trkpt>
      <trkpt lat="48.53458" lon="5.98109">
        <ele>357</ele>
        <time>2011-06-23T01:53:50Z</time>
      </trkpt>
      <trkpt lat="48.5358" lon="5.98173">
        <ele>356</ele>
        <time>2011-06-23T01:54:08Z</time>
      </trkpt>
      <trkpt lat="48.53606" lon="5.98191">
        <ele>355</ele>
        <time>2011-06-23T01:54:11Z</time>
      </trkpt>
      <trkpt lat="48.53629" lon="5.98212">
        <ele>354</ele>
        <time>2011-06-23T01:54:15Z</time>
      </trkpt>
      <trkpt lat="48.5368" lon="5.98273">
        <ele>353</ele>
        <time>2011-06-23T01:54:24Z</time>
      </trkpt>
      <trkpt lat="48.53894" lon="5.98632">
        <ele>349</ele>
        <time>2011-06-23T01:55:06Z</time>
      </trkpt>
      <trkpt lat="48.53992" lon="5.98768">
        <ele>344</ele>
        <time>2011-06-23T01:55:24Z</time>
      </trkpt>
      <trkpt lat="48.54094" lon="5.98958">
        <ele>326</ele>
        <time>2011-06-23T01:55:46Z</time>
      </trkpt>
      <trkpt lat="48.54154" lon="5.99084">
        <ele>321</ele>
        <time>2011-06-23T01:56:00Z</time>
      </trkpt>
      <trkpt lat="48.5433" lon="5.993">
        <ele>320</ele>
        <time>2011-06-23T01:56:30Z</time>
      </trkpt>
      <trkpt lat="48.544" lon="5.99405">
        <ele>316</ele>
        <time>2011-06-23T01:56:43Z</time>
      </trkpt>
      <trkpt lat="48.54442" lon="5.99464">
        <ele>313</ele>
        <time>2011-06-23T01:56:51Z</time>
      </trkpt>
      <trkpt lat="48.54505" lon="5.99537">
        <ele>309</ele>
        <time>2011-06-23T01:57:01Z</time>
      </trkpt>
      <trkpt lat="48.54526" lon="5.99546">
        <ele>309</ele>
        <time>2011-06-23T01:57:06Z</time>
      </trkpt>
      <trkpt lat="48.54599" lon="5.99558">
        <ele>312</ele>
        <time>2011-06-23T01:57:21Z</time>
      </trkpt>
      <trkpt lat="48.54644" lon="5.99603">
        <ele>316</ele>
        <time>2011-06-23T01:57:38Z</time>
      </trkpt>
      <trkpt lat="48.54655" lon="5.99609">
        <ele>317</ele>
        <time>2011-06-23T01:57:42Z</time>
      </trkpt>
      <trkpt lat="48.54706" lon="5.99624">
        <ele>321</ele>
        <time>2011-06-23T01:57:59Z</time>
      </trkpt>
      <trkpt lat="48.5474" lon="5.99614">
        <ele>323</ele>
        <time>2011-06-23T01:58:10Z</time>
      </trkpt>
      <trkpt lat="48.54748" lon="5.99616">
        <ele>324</ele>
        <time>2011-06-23T01:58:12Z</time>
      </trkpt>
      <trkpt lat="48.54778" lon="5.99664">
        <ele>327</ele>
        <time>2011-06-23T01:58:26Z</time>
      </trkpt>
      <trkpt lat="48.54793" lon="5.9967">
        <ele>329</ele>
        <time>2011-06-23T01:58:31Z</time>
      </trkpt>
      <trkpt lat="48.54874" lon="5.99539">
        <ele>324</ele>
        <time>2011-06-23T01:58:47Z</time>
      </trkpt>
      <trkpt lat="48.54892" lon="5.99545">
        <ele>325</ele>
        <time>2011-06-23T01:58:53Z</time>
      </trkpt>
      <trkpt lat="48.54924" lon="5.99585">
        <ele>328</ele>
        <time>2011-06-23T01:59:07Z</time>
      </trkpt>
      <trkpt lat="48.54936" lon="5.99594">
        <ele>330</ele>
        <time>2011-06-23T01:59:12Z</time>
      </trkpt>
      <trkpt lat="48.55124" lon="5.99522">
        <ele>346</ele>
        <time>2011-06-23T02:00:16Z</time>
      </trkpt>
      <trkpt lat="48.55276" lon="5.99482">
        <ele>357</ele>
        <time>2011-06-23T02:01:03Z</time>
      </trkpt>
      <trkpt lat="48.55297" lon="5.9948">
        <ele>358</ele>
        <time>2011-06-23T02:01:09Z</time>
      </trkpt>
      <trkpt lat="48.55309" lon="5.99484">
        <ele>359</ele>
        <time>2011-06-23T02:01:12Z</time>
      </trkpt>
      <trkpt lat="48.55392" lon="5.99598">
        <ele>366</ele>
        <time>2011-06-23T02:01:44Z</time>
      </trkpt>
      <trkpt lat="48.55406" lon="5.99633">
        <ele>367</ele>
        <time>2011-06-23T02:01:51Z</time>
      </trkpt>
      <trkpt lat="48.55405" lon="5.99679">
        <ele>369</ele>
        <time>2011-06-23T02:02:00Z</time>
      </trkpt>
      <trkpt lat="48.55386" lon="5.99789">
        <ele>374</ele>
        <time>2011-06-23T02:02:21Z</time>
      </trkpt>
      <trkpt lat="48.55388" lon="5.99814">
        <ele>374</ele>
        <time>2011-06-23T02:02:25Z</time>
      </trkpt>
      <trkpt lat="48.55399" lon="5.99848">
        <ele>376</ele>
        <time>2011-06-23T02:02:31Z</time>
      </trkpt>
      <trkpt lat="48.55445" lon="5.99941">
        <ele>380</ele>
        <time>2011-06-23T02:02:51Z</time>
      </trkpt>
      <trkpt lat="48.55462" lon="5.99998">
        <ele>381</ele>
        <time>2011-06-23T02:03:01Z</time>
      </trkpt>
      <trkpt lat="48.55493" lon="6.00134">
        <ele>386</ele>
        <time>2011-06-23T02:03:24Z</time>
      </trkpt>
      <trkpt lat="48.55499" lon="6.002">
        <ele>386</ele>
        <time>2011-06-23T02:03:32Z</time>
      </trkpt>
      <trkpt lat="48.55495" lon="6.00294">
        <ele>388</ele>
        <time>2011-06-23T02:03:43Z</time>
      </trkpt>
      <trkpt lat="48.55502" lon="6.00341">
        <ele>387</ele>
        <time>2011-06-23T02:03:47Z</time>
      </trkpt>
      <trkpt lat="48.5554" lon="6.00431">
        <ele>387</ele>
        <time>2011-06-23T02:03:56Z</time>
      </trkpt>
      <trkpt lat="48.55569" lon="6.00475">
        <ele>384</ele>
        <time>2011-06-23T02:04:02Z</time>
      </trkpt>
      <trkpt lat="48.55605" lon="6.00502">
        <ele>383</ele>
        <time>2011-06-23T02:04:07Z</time>
      </trkpt>
      <trkpt lat="48.5574" lon="6.00575">
        <ele>376</ele>
        <time>2011-06-23T02:04:26Z</time>
      </trkpt>
      <trkpt lat="48.55852" lon="6.00604">
        <ele>380</ele>
        <time>2011-06-23T02:04:51Z</time>
      </trkpt>
      <trkpt lat="48.56041" lon="6.00701">
        <ele>385</ele>
        <time>2011-06-23T02:05:30Z</time>
      </trkpt>
      <trkpt lat="48.56127" lon="6.00719">
        <ele>384</ele>
        <time>2011-06-23T02:05:41Z</time>
      </trkpt>
      <trkpt lat="48.56153" lon="6.00732">
        <ele>384</ele>
        <time>2011-06-23T02:05:45Z</time>
      </trkpt>
      <trkpt lat="48.56178" lon="6.00759">
        <ele>384</ele>
        <time>2011-06-23T02:05:52Z</time>
      </trkpt>
      <trkpt lat="48.56189" lon="6.00784">
        <ele>385</ele>
        <time>2011-06-23T02:05:56Z</time>
      </trkpt>
      <trkpt lat="48.56225" lon="6.00936">
        <ele>389</ele>
        <time>2011-06-23T02:06:18Z</time>
      </trkpt>
      <trkpt lat="48.56244" lon="6.00976">
        <ele>389</ele>
        <time>2011-06-23T02:06:23Z</time>
      </trkpt>
      <trkpt lat="48.56275" lon="6.01019">
        <ele>389</ele>
        <time>2011-06-23T02:06:29Z</time>
      </trkpt>
      <trkpt lat="48.56363" lon="6.01116">
        <ele>390</ele>
        <time>2011-06-23T02:06:45Z</time>
      </trkpt>
      <trkpt lat="48.56479" lon="6.01234">
        <ele>390</ele>
        <time>2011-06-23T02:07:04Z</time>
      </trkpt>
      <trkpt lat="48.56565" lon="6.01279">
        <ele>384</ele>
        <time>2011-06-23T02:07:16Z</time>
      </trkpt>
      <trkpt lat="48.5663" lon="6.01323">
        <ele>380</ele>
        <time>2011-06-23T02:07:25Z</time>
      </trkpt>
      <trkpt lat="48.56799" lon="6.01565">
        <ele>371</ele>
        <time>2011-06-23T02:07:56Z</time>
      </trkpt>
      <trkpt lat="48.56895" lon="6.01692">
        <ele>368</ele>
        <time>2011-06-23T02:08:14Z</time>
      </trkpt>
      <trkpt lat="48.57108" lon="6.01863">
        <ele>362</ele>
        <time>2011-06-23T02:08:46Z</time>
      </trkpt>
      <trkpt lat="48.5727" lon="6.02001">
        <ele>357</ele>
        <time>2011-06-23T02:09:11Z</time>
      </trkpt>
      <trkpt lat="48.57412" lon="6.02129">
        <ele>351</ele>
        <time>2011-06-23T02:09:33Z</time>
      </trkpt>
      <trkpt lat="48.57448" lon="6.02156">
        <ele>348</ele>
        <time>2011-06-23T02:09:38Z</time>
      </trkpt>
      <trkpt lat="48.57488" lon="6.02172">
        <ele>345</ele>
        <time>2011-06-23T02:09:44Z</time>
      </trkpt>
      <trkpt lat="48.57584" lon="6.02193">
        <ele>339</ele>
        <time>2011-06-23T02:09:57Z</time>
      </trkpt>
      <trkpt lat="48.57629" lon="6.02216">
        <ele>336</ele>
        <time>2011-06-23T02:10:03Z</time>
      </trkpt>
      <trkpt lat="48.57658" lon="6.02244">
        <ele>335</ele>
        <time>2011-06-23T02:10:07Z</time>
      </trkpt>
      <trkpt lat="48.57782" lon="6.02389">
        <ele>328</ele>
        <time>2011-06-23T02:10:28Z</time>
      </trkpt>
      <trkpt lat="48.57917" lon="6.02516">
        <ele>321</ele>
        <time>2011-06-23T02:10:50Z</time>
      </trkpt>
      <trkpt lat="48.57917" lon="6.02516">
        <ele>321</ele>
        <time>2011-06-23T02:10:51Z</time>
      </trkpt>
      <trkpt lat="48.58082" lon="6.02685">
        <ele>312</ele>
        <time>2011-06-23T02:11:17Z</time>
      </trkpt>
      <trkpt lat="48.58096" lon="6.02704">
        <ele>312</ele>
        <time>2011-06-23T02:11:22Z</time>
      </trkpt>
      <trkpt lat="48.58079" lon="6.02796">
        <ele>315</ele>
        <time>2011-06-23T02:11:36Z</time>
      </trkpt>
      <trkpt lat="48.58036" lon="6.02947">
        <ele>320</ele>
        <time>2011-06-23T02:12:02Z</time>
      </trkpt>
      <trkpt lat="48.57975" lon="6.03134">
        <ele>309</ele>
        <time>2011-06-23T02:12:20Z</time>
      </trkpt>
      <trkpt lat="48.57957" lon="6.03206">
        <ele>303</ele>
        <time>2011-06-23T02:12:27Z</time>
      </trkpt>
      <trkpt lat="48.57941" lon="6.03346">
        <ele>292</ele>
        <time>2011-06-23T02:12:40Z</time>
      </trkpt>
      <trkpt lat="48.57938" lon="6.03399">
        <ele>288</ele>
        <time>2011-06-23T02:12:44Z</time>
      </trkpt>
      <trkpt lat="48.57949" lon="6.0357">
        <ele>279</ele>
        <time>2011-06-23T02:13:00Z</time>
      </trkpt>
      <trkpt lat="48.57972" lon="6.03731">
        <ele>276</ele>
        <time>2011-06-23T02:13:14Z</time>
      </trkpt>
      <trkpt lat="48.58028" lon="6.04184">
        <ele>259</ele>
        <time>2011-06-23T02:13:55Z</time>
      </trkpt>
      <trkpt lat="48.58052" lon="6.04446">
        <ele>255</ele>
        <time>2011-06-23T02:14:18Z</time>
      </trkpt>
      <trkpt lat="48.58061" lon="6.04662">
        <ele>254</ele>
        <time>2011-06-23T02:14:37Z</time>
      </trkpt>
      <trkpt lat="48.58126" lon="6.05158">
        <ele>249</ele>
        <time>2011-06-23T02:15:22Z</time>
      </trkpt>
      <trkpt lat="48.58118" lon="6.05164">
        <ele>249</ele>
        <time>2011-06-23T02:15:24Z</time>
      </trkpt>
      <trkpt lat="48.58116" lon="6.0518">
        <ele>249</ele>
        <time>2011-06-23T02:15:26Z</time>
      </trkpt>
      <trkpt lat="48.58119" lon="6.05191">
        <ele>250</ele>
        <time>2011-06-23T02:15:28Z</time>
      </trkpt>
      <trkpt lat="48.5813" lon="6.05197">
        <ele>250</ele>
        <time>2011-06-23T02:15:31Z</time>
      </trkpt>
      <trkpt lat="48.58164" lon="6.0546">
        <ele>257</ele>
        <time>2011-06-23T02:16:10Z</time>
      </trkpt>
      <trkpt lat="48.58184" lon="6.05573">
        <ele>256</ele>
        <time>2011-06-23T02:16:21Z</time>
      </trkpt>
      <trkpt lat="48.58247" lon="6.05766">
        <ele>255</ele>
        <time>2011-06-23T02:16:40Z</time>
      </trkpt>
      <trkpt lat="48.5835" lon="6.06029">
        <ele>250</ele>
        <time>2011-06-23T02:17:07Z</time>
      </trkpt>
      <trkpt lat="48.58371" lon="6.06102">
        <ele>248</ele>
        <time>2011-06-23T02:17:14Z</time>
      </trkpt>
      <trkpt lat="48.58368" lon="6.06138">
        <ele>247</ele>
        <time>2011-06-23T02:17:17Z</time>
      </trkpt>
      <trkpt lat="48.58359" lon="6.06167">
        <ele>247</ele>
        <time>2011-06-23T02:17:20Z</time>
      </trkpt>
      <trkpt lat="48.58343" lon="6.062">
        <ele>246</ele>
        <time>2011-06-23T02:17:23Z</time>
      </trkpt>
      <trkpt lat="48.58338" lon="6.06221">
        <ele>245</ele>
        <time>2011-06-23T02:17:25Z</time>
      </trkpt>
      <trkpt lat="48.58334" lon="6.06321">
        <ele>244</ele>
        <time>2011-06-23T02:17:34Z</time>
      </trkpt>
      <trkpt lat="48.58433" lon="6.07146">
        <ele>232</ele>
        <time>2011-06-23T02:18:48Z</time>
      </trkpt>
      <trkpt lat="48.58433" lon="6.07167">
        <ele>232</ele>
        <time>2011-06-23T02:18:50Z</time>
      </trkpt>
      <trkpt lat="48.58454" lon="6.07348">
        <ele>232</ele>
        <time>2011-06-23T02:19:06Z</time>
      </trkpt>
      <trkpt lat="48.58534" lon="6.07962">
        <ele>231</ele>
        <time>2011-06-23T02:20:02Z</time>
      </trkpt>
      <trkpt lat="48.58673" lon="6.09119">
        <ele>226</ele>
        <time>2011-06-23T02:21:46Z</time>
      </trkpt>
      <trkpt lat="48.58675" lon="6.09187">
        <ele>226</ele>
        <time>2011-06-23T02:21:52Z</time>
      </trkpt>
      <trkpt lat="48.5866" lon="6.09294">
        <ele>226</ele>
        <time>2011-06-23T02:22:01Z</time>
      </trkpt>
      <trkpt lat="48.58661" lon="6.09336">
        <ele>226</ele>
        <time>2011-06-23T02:22:05Z</time>
      </trkpt>
      <trkpt lat="48.58661" lon="6.09336">
        <ele>226</ele>
        <time>2011-06-23T02:22:06Z</time>
      </trkpt>
      <trkpt lat="48.58664" lon="6.09367">
        <ele>226</ele>
        <time>2011-06-23T02:22:09Z</time>
      </trkpt>
      <trkpt lat="48.58681" lon="6.09445">
        <ele>226</ele>
        <time>2011-06-23T02:22:16Z</time>
      </trkpt>
      <trkpt lat="48.58716" lon="6.09579">
        <ele>226</ele>
        <time>2011-06-23T02:22:29Z</time>
      </trkpt>
      <trkpt lat="48.58761" lon="6.09714">
        <ele>224</ele>
        <time>2011-06-23T02:22:42Z</time>
      </trkpt>
      <trkpt lat="48.58791" lon="6.09757">
        <ele>224</ele>
        <time>2011-06-23T02:22:48Z</time>
      </trkpt>
      <trkpt lat="48.58862" lon="6.09825">
        <ele>224</ele>
        <time>2011-06-23T02:22:59Z</time>
      </trkpt>
      <trkpt lat="48.59319" lon="6.10186">
        <ele>222</ele>
        <time>2011-06-23T02:24:08Z</time>
      </trkpt>
      <trkpt lat="48.5938" lon="6.10229">
        <ele>222</ele>
        <time>2011-06-23T02:24:17Z</time>
      </trkpt>
      <trkpt lat="48.59472" lon="6.10283">
        <ele>222</ele>
        <time>2011-06-23T02:24:30Z</time>
      </trkpt>
      <trkpt lat="48.59577" lon="6.10332">
        <ele>223</ele>
        <time>2011-06-23T02:24:47Z</time>
      </trkpt>
      <trkpt lat="48.59796" lon="6.10399">
        <ele>222</ele>
        <time>2011-06-23T02:25:17Z</time>
      </trkpt>
      <trkpt lat="48.59959" lon="6.10422">
        <ele>224</ele>
        <time>2011-06-23T02:25:43Z</time>
      </trkpt>
      <trkpt lat="48.60009" lon="6.10419">
        <ele>224</ele>
        <time>2011-06-23T02:25:51Z</time>
      </trkpt>
      <trkpt lat="48.60115" lon="6.10354">
        <ele>225</ele>
        <time>2011-06-23T02:26:08Z</time>
      </trkpt>
      <trkpt lat="48.60323" lon="6.10206">
        <ele>221</ele>
        <time>2011-06-23T02:26:38Z</time>
      </trkpt>
      <trkpt lat="48.60433" lon="6.10089">
        <ele>220</ele>
        <time>2011-06-23T02:26:56Z</time>
      </trkpt>
      <trkpt lat="48.60516" lon="6.09974">
        <ele>222</ele>
        <time>2011-06-23T02:27:16Z</time>
      </trkpt>
      <trkpt lat="48.60543" lon="6.09972">
        <ele>220</ele>
        <time>2011-06-23T02:27:20Z</time>
      </trkpt>
      <trkpt lat="48.6059" lon="6.0993">
        <ele>218</ele>
        <time>2011-06-23T02:27:27Z</time>
      </trkpt>
      <trkpt lat="48.60625" lon="6.09924">
        <ele>217</ele>
        <time>2011-06-23T02:27:32Z</time>
      </trkpt>
      <trkpt lat="48.60885" lon="6.10084">
        <ele>216</ele>
        <time>2011-06-23T02:28:09Z</time>
      </trkpt>
      <trkpt lat="48.61126" lon="6.10218">
        <ele>217</ele>
        <time>2011-06-23T02:28:46Z</time>
      </trkpt>
      <trkpt lat="48.6118" lon="6.10181">
        <ele>217</ele>
        <time>2011-06-23T02:28:55Z</time>
      </trkpt>
      <trkpt lat="48.61209" lon="6.10172">
        <ele>217</ele>
        <time>2011-06-23T02:29:00Z</time>
      </trkpt>
      <trkpt lat="48.61237" lon="6.10172">
        <ele>218</ele>
        <time>2011-06-23T02:29:04Z</time>
      </trkpt>
      <trkpt lat="48.61252" lon="6.10179">
        <ele>218</ele>
        <time>2011-06-23T02:29:07Z</time>
      </trkpt>
      <trkpt lat="48.61287" lon="6.1021">
        <ele>219</ele>
        <time>2011-06-23T02:29:14Z</time>
      </trkpt>
      <trkpt lat="48.61308" lon="6.1024">
        <ele>219</ele>
        <time>2011-06-23T02:29:19Z</time>
      </trkpt>
      <trkpt lat="48.61354" lon="6.10331">
        <ele>221</ele>
        <time>2011-06-23T02:29:33Z</time>
      </trkpt>
      <trkpt lat="48.61377" lon="6.10362">
        <ele>221</ele>
        <time>2011-06-23T02:29:37Z</time>
      </trkpt>
      <trkpt lat="48.61518" lon="6.10445">
        <ele>221</ele>
        <time>2011-06-23T02:29:57Z</time>
      </trkpt>
      <trkpt lat="48.61554" lon="6.10459">
        <ele>221</ele>
        <time>2011-06-23T02:30:04Z</time>
      </trkpt>
      <trkpt lat="48.61642" lon="6.1048">
        <ele>223</ele>
        <time>2011-06-23T02:30:19Z</time>
      </trkpt>
      <trkpt lat="48.61594" lon="6.10713">
        <ele>224</ele>
        <time>2011-06-23T02:30:43Z</time>
      </trkpt>
      <trkpt lat="48.61564" lon="6.10934">
        <ele>223</ele>
        <time>2011-06-23T02:31:03Z</time>
      </trkpt>
      <trkpt lat="48.61576" lon="6.11044">
        <ele>223</ele>
        <time>2011-06-23T02:31:13Z</time>
      </trkpt>
      <trkpt lat="48.61574" lon="6.11075">
        <ele>223</ele>
        <time>2011-06-23T02:31:15Z</time>
      </trkpt>
      <trkpt lat="48.61566" lon="6.11093">
        <ele>222</ele>
        <time>2011-06-23T02:31:17Z</time>
      </trkpt>
      <trkpt lat="48.61538" lon="6.11126">
        <ele>222</ele>
        <time>2011-06-23T02:31:22Z</time>
      </trkpt>
      <trkpt lat="48.61533" lon="6.11139">
        <ele>222</ele>
        <time>2011-06-23T02:31:23Z</time>
      </trkpt>
      <trkpt lat="48.61515" lon="6.11265">
        <ele>222</ele>
        <time>2011-06-23T02:31:35Z</time>
      </trkpt>
      <trkpt lat="48.61464" lon="6.11393">
        <ele>220</ele>
        <time>2011-06-23T02:31:48Z</time>
      </trkpt>
      <trkpt lat="48.61411" lon="6.11671">
        <ele>219</ele>
        <time>2011-06-23T02:32:13Z</time>
      </trkpt>
      <trkpt lat="48.61327" lon="6.11964">
        <ele>221</ele>
        <time>2011-06-23T02:32:46Z</time>
      </trkpt>
      <trkpt lat="48.61325" lon="6.1199">
        <ele>221</ele>
        <time>2011-06-23T02:32:50Z</time>
      </trkpt>
      <trkpt lat="48.61331" lon="6.12055">
        <ele>222</ele>
        <time>2011-06-23T02:32:58Z</time>
      </trkpt>
      <trkpt lat="48.61328" lon="6.1214">
        <ele>224</ele>
        <time>2011-06-23T02:33:09Z</time>
      </trkpt>
      <trkpt lat="48.61196" lon="6.12613">
        <ele>228</ele>
        <time>2011-06-23T02:34:04Z</time>
      </trkpt>
      <trkpt lat="48.6116" lon="6.12767">
        <ele>227</ele>
        <time>2011-06-23T02:34:19Z</time>
      </trkpt>
      <trkpt lat="48.61143" lon="6.12919">
        <ele>229</ele>
        <time>2011-06-23T02:34:37Z</time>
      </trkpt>
      <trkpt lat="48.61124" lon="6.13266">
        <ele>231</ele>
        <time>2011-06-23T02:35:13Z</time>
      </trkpt>
      <trkpt lat="48.61116" lon="6.13513">
        <ele>231</ele>
        <time>2011-06-23T02:35:34Z</time>
      </trkpt>
      <trkpt lat="48.61065" lon="6.13999">
        <ele>228</ele>
        <time>2011-06-23T02:36:18Z</time>
      </trkpt>
      <trkpt lat="48.61059" lon="6.14082">
        <ele>229</ele>
        <time>2011-06-23T02:36:28Z</time>
      </trkpt>
      <trkpt lat="48.61059" lon="6.14082">
        <ele>229</ele>
        <time>2011-06-23T02:36:29Z</time>
      </trkpt>
      <trkpt lat="48.61053" lon="6.14209">
        <ele>228</ele>
        <time>2011-06-23T02:36:40Z</time>
      </trkpt>
      <trkpt lat="48.61043" lon="6.14277">
        <ele>228</ele>
        <time>2011-06-23T02:36:46Z</time>
      </trkpt>
      <trkpt lat="48.60997" lon="6.1438">
        <ele>224</ele>
        <time>2011-06-23T02:36:57Z</time>
      </trkpt>
      <trkpt lat="48.60985" lon="6.14424">
        <ele>223</ele>
        <time>2011-06-23T02:37:01Z</time>
      </trkpt>
      <trkpt lat="48.60986" lon="6.1449">
        <ele>224</ele>
        <time>2011-06-23T02:37:10Z</time>
      </trkpt>
      <trkpt lat="48.61011" lon="6.14721">
        <ele>228</ele>
        <time>2011-06-23T02:37:40Z</time>
      </trkpt>
      <trkpt lat="48.61005" lon="6.14791">
        <ele>228</ele>
        <time>2011-06-23T02:37:47Z</time>
      </trkpt>
      <trkpt lat="48.60985" lon="6.14863">
        <ele>229</ele>
        <time>2011-06-23T02:37:55Z</time>
      </trkpt>
      <trkpt lat="48.60973" lon="6.14889">
        <ele>228</ele>
        <time>2011-06-23T02:37:58Z</time>
      </trkpt>
      <trkpt lat="48.60957" lon="6.14908">
        <ele>227</ele>
        <time>2011-06-23T02:38:01Z</time>
      </trkpt>
      <trkpt lat="48.60827" lon="6.14982">
        <ele>223</ele>
        <time>2011-06-23T02:38:19Z</time>
      </trkpt>
      <trkpt lat="48.60771" lon="6.15022">
        <ele>225</ele>
        <time>2011-06-23T02:38:35Z</time>
      </trkpt>
      <trkpt lat="48.60752" lon="6.15042">
        <ele>227</ele>
        <time>2011-06-23T02:38:40Z</time>
      </trkpt>
      <trkpt lat="48.60802" lon="6.15183">
        <ele>232</ele>
        <time>2011-06-23T02:39:06Z</time>
      </trkpt>
      <trkpt lat="48.60814" lon="6.15204">
        <ele>232</ele>
        <time>2011-06-23T02:39:10Z</time>
      </trkpt>
      <trkpt lat="48.60858" lon="6.15246">
        <ele>233</ele>
        <time>2011-06-23T02:39:19Z</time>
      </trkpt>
      <trkpt lat="48.60895" lon="6.15353">
        <ele>235</ele>
        <time>2011-06-23T02:39:34Z</time>
      </trkpt>
      <trkpt lat="48.60951" lon="6.15436">
        <ele>235</ele>
        <time>2011-06-23T02:39:45Z</time>
      </trkpt>
      <trkpt lat="48.61029" lon="6.1554">
        <ele>236</ele>
        <time>2011-06-23T02:40:00Z</time>
      </trkpt>
      <trkpt lat="48.61031" lon="6.15548">
        <ele>236</ele>
        <time>2011-06-23T02:40:01Z</time>
      </trkpt>
      <trkpt lat="48.61036" lon="6.15579">
        <ele>236</ele>
        <time>2011-06-23T02:40:05Z</time>
      </trkpt>
      <trkpt lat="48.61034" lon="6.15612">
        <ele>236</ele>
        <time>2011-06-23T02:40:08Z</time>
      </trkpt>
      <trkpt lat="48.60994" lon="6.15718">
        <ele>237</ele>
        <time>2011-06-23T02:40:20Z</time>
      </trkpt>
      <trkpt lat="48.60931" lon="6.15981">
        <ele>246</ele>
        <time>2011-06-23T02:41:06Z</time>
      </trkpt>
      <trkpt lat="48.60932" lon="6.16014">
        <ele>246</ele>
        <time>2011-06-23T02:41:11Z</time>
      </trkpt>
      <trkpt lat="48.6095" lon="6.16056">
        <ele>247</ele>
        <time>2011-06-23T02:41:17Z</time>
      </trkpt>
      <trkpt lat="48.6097" lon="6.16077">
        <ele>247</ele>
        <time>2011-06-23T02:41:22Z</time>
      </trkpt>
      <trkpt lat="48.61091" lon="6.16129">
        <ele>251</ele>
        <time>2011-06-23T02:41:46Z</time>
      </trkpt>
      <trkpt lat="48.61182" lon="6.1618">
        <ele>253</ele>
        <time>2011-06-23T02:42:04Z</time>
      </trkpt>
      <trkpt lat="48.61206" lon="6.16188">
        <ele>254</ele>
        <time>2011-06-23T02:42:09Z</time>
      </trkpt>
      <trkpt lat="48.61225" lon="6.16182">
        <ele>254</ele>
        <time>2011-06-23T02:42:14Z</time>
      </trkpt>
      <trkpt lat="48.61254" lon="6.16161">
        <ele>256</ele>
        <time>2011-06-23T02:42:22Z</time>
      </trkpt>
      <trkpt lat="48.61328" lon="6.16093">
        <ele>260</ele>
        <time>2011-06-23T02:42:42Z</time>
      </trkpt>
      <trkpt lat="48.6134" lon="6.16076">
        <ele>261</ele>
        <time>2011-06-23T02:42:48Z</time>
      </trkpt>
      <trkpt lat="48.61364" lon="6.16038">
        <ele>264</ele>
        <time>2011-06-23T02:43:00Z</time>
      </trkpt>
      <trkpt lat="48.61427" lon="6.15916">
        <ele>274</ele>
        <time>2011-06-23T02:43:36Z</time>
      </trkpt>
      <trkpt lat="48.61448" lon="6.15894">
        <ele>276</ele>
        <time>2011-06-23T02:43:44Z</time>
      </trkpt>
      <trkpt lat="48.61474" lon="6.15894">
        <ele>278</ele>
        <time>2011-06-23T02:43:53Z</time>
      </trkpt>
      <trkpt lat="48.61531" lon="6.15933">
        <ele>283</ele>
        <time>2011-06-23T02:44:13Z</time>
      </trkpt>
      <trkpt lat="48.61555" lon="6.15944">
        <ele>283</ele>
        <time>2011-06-23T02:44:18Z</time>
      </trkpt>
      <trkpt lat="48.61659" lon="6.15953">
        <ele>287</ele>
        <time>2011-06-23T02:44:40Z</time>
      </trkpt>
      <trkpt lat="48.61668" lon="6.1595">
        <ele>287</ele>
        <time>2011-06-23T02:44:42Z</time>
      </trkpt>
      <trkpt lat="48.61703" lon="6.15913">
        <ele>288</ele>
        <time>2011-06-23T02:44:50Z</time>
      </trkpt>
      <trkpt lat="48.61719" lon="6.15905">
        <ele>288</ele>
        <time>2011-06-23T02:44:53Z</time>
      </trkpt>
      <trkpt lat="48.61765" lon="6.159">
        <ele>290</ele>
        <time>2011-06-23T02:45:02Z</time>
      </trkpt>
      <trkpt lat="48.61796" lon="6.15903">
        <ele>290</ele>
        <time>2011-06-23T02:45:07Z</time>
      </trkpt>
      <trkpt lat="48.61864" lon="6.1592">
        <ele>291</ele>
        <time>2011-06-23T02:45:18Z</time>
      </trkpt>
      <trkpt lat="48.61957" lon="6.15977">
        <ele>291</ele>
        <time>2011-06-23T02:45:32Z</time>
      </trkpt>
      <trkpt lat="48.61997" lon="6.15991">
        <ele>291</ele>
        <time>2011-06-23T02:45:38Z</time>
      </trkpt>
      <trkpt lat="48.62037" lon="6.15995">
        <ele>291</ele>
        <time>2011-06-23T02:45:44Z</time>
      </trkpt>
      <trkpt lat="48.6209" lon="6.16027">
        <ele>292</ele>
        <time>2011-06-23T02:45:52Z</time>
      </trkpt>
      <trkpt lat="48.6209" lon="6.16027">
        <ele>292</ele>
        <time>2011-06-23T02:45:53Z</time>
      </trkpt>
      <trkpt lat="48.62166" lon="6.1607">
        <ele>290</ele>
        <time>2011-06-23T02:46:04Z</time>
      </trkpt>
      <trkpt lat="48.62141" lon="6.16176">
        <ele>290</ele>
        <time>2011-06-23T02:46:14Z</time>
      </trkpt>
      <trkpt lat="48.62116" lon="6.16202">
        <ele>288</ele>
        <time>2011-06-23T02:46:18Z</time>
      </trkpt>
      <trkpt lat="48.62082" lon="6.16285">
        <ele>286</ele>
        <time>2011-06-23T02:46:27Z</time>
      </trkpt>
      <trkpt lat="48.62072" lon="6.16299">
        <ele>285</ele>
        <time>2011-06-23T02:46:29Z</time>
      </trkpt>
      <trkpt lat="48.62061" lon="6.16296">
        <ele>285</ele>
        <time>2011-06-23T02:46:30Z</time>
      </trkpt>
      <trkpt lat="48.62054" lon="6.16308">
        <ele>284</ele>
        <time>2011-06-23T02:46:32Z</time>
      </trkpt>
      <trkpt lat="48.62055" lon="6.1632">
        <ele>284</ele>
        <time>2011-06-23T02:46:33Z</time>
      </trkpt>
      <trkpt lat="48.62059" lon="6.16326">
        <ele>284</ele>
        <time>2011-06-23T02:46:33Z</time>
      </trkpt>
      <trkpt lat="48.62067" lon="6.16327">
        <ele>283</ele>
        <time>2011-06-23T02:46:35Z</time>
      </trkpt>
      <trkpt lat="48.62063" lon="6.16336">
        <ele>283</ele>
        <time>2011-06-23T02:46:36Z</time>
      </trkpt>
      <trkpt lat="48.62059" lon="6.16386">
        <ele>282</ele>
        <time>2011-06-23T02:46:40Z</time>
      </trkpt>
      <trkpt lat="48.62041" lon="6.16498">
        <ele>279</ele>
        <time>2011-06-23T02:46:50Z</time>
      </trkpt>
      <trkpt lat="48.62043" lon="6.16525">
        <ele>278</ele>
        <time>2011-06-23T02:46:53Z</time>
      </trkpt>
      <trkpt lat="48.62066" lon="6.1661">
        <ele>274</ele>
        <time>2011-06-23T02:47:01Z</time>
      </trkpt>
      <trkpt lat="48.62071" lon="6.16658">
        <ele>273</ele>
        <time>2011-06-23T02:47:05Z</time>
      </trkpt>
      <trkpt lat="48.62069" lon="6.16684">
        <ele>272</ele>
        <time>2011-06-23T02:47:07Z</time>
      </trkpt>
      <trkpt lat="48.62052" lon="6.16749">
        <ele>271</ele>
        <time>2011-06-23T02:47:13Z</time>
      </trkpt>
      <trkpt lat="48.62039" lon="6.16782">
        <ele>271</ele>
        <time>2011-06-23T02:47:17Z</time>
      </trkpt>
      <trkpt lat="48.6203" lon="6.16786">
        <ele>271</ele>
        <time>2011-06-23T02:47:18Z</time>
      </trkpt>
      <trkpt lat="48.62028" lon="6.16801">
        <ele>270</ele>
        <time>2011-06-23T02:47:19Z</time>
      </trkpt>
      <trkpt lat="48.62035" lon="6.16811">
        <ele>270</ele>
        <time>2011-06-23T02:47:21Z</time>
      </trkpt>
      <trkpt lat="48.62043" lon="6.16809">
        <ele>270</ele>
        <time>2011-06-23T02:47:22Z</time>
      </trkpt>
      <trkpt lat="48.6207" lon="6.16878">
        <ele>269</ele>
        <time>2011-06-23T02:47:29Z</time>
      </trkpt>
      <trkpt lat="48.62102" lon="6.17034">
        <ele>267</ele>
        <time>2011-06-23T02:47:43Z</time>
      </trkpt>
      <trkpt lat="48.62125" lon="6.17117">
        <ele>267</ele>
        <time>2011-06-23T02:47:51Z</time>
      </trkpt>
      <trkpt lat="48.62147" lon="6.17165">
        <ele>267</ele>
        <time>2011-06-23T02:47:56Z</time>
      </trkpt>
      <trkpt lat="48.62189" lon="6.17231">
        <ele>268</ele>
        <time>2011-06-23T02:48:07Z</time>
      </trkpt>
      <trkpt lat="48.62197" lon="6.17259">
        <ele>268</ele>
        <time>2011-06-23T02:48:10Z</time>
      </trkpt>
      <trkpt lat="48.6222" lon="6.17407">
        <ele>270</ele>
        <time>2011-06-23T02:48:28Z</time>
      </trkpt>
      <trkpt lat="48.62223" lon="6.1748">
        <ele>270</ele>
        <time>2011-06-23T02:48:34Z</time>
      </trkpt>
      <trkpt lat="48.62213" lon="6.17592">
        <ele>270</ele>
        <time>2011-06-23T02:48:44Z</time>
      </trkpt>
      <trkpt lat="48.62177" lon="6.17807">
        <ele>272</ele>
        <time>2011-06-23T02:49:09Z</time>
      </trkpt>
      <trkpt lat="48.62208" lon="6.17968">
        <ele>275</ele>
        <time>2011-06-23T02:49:31Z</time>
      </trkpt>
      <trkpt lat="48.62223" lon="6.18022">
        <ele>275</ele>
        <time>2011-06-23T02:49:37Z</time>
      </trkpt>
      <trkpt lat="48.62272" lon="6.18165">
        <ele>277</ele>
        <time>2011-06-23T02:49:55Z</time>
      </trkpt>
      <trkpt lat="48.62288" lon="6.18228">
        <ele>276</ele>
        <time>2011-06-23T02:50:01Z</time>
      </trkpt>
      <trkpt lat="48.6239" lon="6.18726">
        <ele>271</ele>
        <time>2011-06-23T02:50:47Z</time>
      </trkpt>
      <trkpt lat="48.62402" lon="6.18796">
        <ele>267</ele>
        <time>2011-06-23T02:50:53Z</time>
      </trkpt>
      <trkpt lat="48.62408" lon="6.18855">
        <ele>264</ele>
        <time>2011-06-23T02:50:58Z</time>
      </trkpt>
      <trkpt lat="48.62402" lon="6.18957">
        <ele>260</ele>
        <time>2011-06-23T02:51:08Z</time>
      </trkpt>
      <trkpt lat="48.62403" lon="6.18987">
        <ele>258</ele>
        <time>2011-06-23T02:51:10Z</time>
      </trkpt>
      <trkpt lat="48.62486" lon="6.19335">
        <ele>243</ele>
        <time>2011-06-23T02:51:43Z</time>
      </trkpt>
      <trkpt lat="48.62487" lon="6.19387">
        <ele>241</ele>
        <time>2011-06-23T02:51:47Z</time>
      </trkpt>
      <trkpt lat="48.62475" lon="6.19422">
        <ele>240</ele>
        <time>2011-06-23T02:51:51Z</time>
      </trkpt>
      <trkpt lat="48.62475" lon="6.19422">
        <ele>240</ele>
        <time>2011-06-23T02:51:52Z</time>
      </trkpt>
      <trkpt lat="48.62442" lon="6.19466">
        <ele>237</ele>
        <time>2011-06-23T02:51:58Z</time>
      </trkpt>
      <trkpt lat="48.62433" lon="6.19496">
        <ele>236</ele>
        <time>2011-06-23T02:52:01Z</time>
      </trkpt>
      <trkpt lat="48.62435" lon="6.19538">
        <ele>235</ele>
        <time>2011-06-23T02:52:04Z</time>
      </trkpt>
      <trkpt lat="48.62446" lon="6.19611">
        <ele>233</ele>
        <time>2011-06-23T02:52:11Z</time>
      </trkpt>
      <trkpt lat="48.62451" lon="6.19696">
        <ele>230</ele>
        <time>2011-06-23T02:52:19Z</time>
      </trkpt>
      <trkpt lat="48.62443" lon="6.19735">
        <ele>229</ele>
        <time>2011-06-23T02:52:22Z</time>
      </trkpt>
      <trkpt lat="48.62411" lon="6.19791">
        <ele>227</ele>
        <time>2011-06-23T02:52:29Z</time>
      </trkpt>
      <trkpt lat="48.62408" lon="6.19818">
        <ele>225</ele>
        <time>2011-06-23T02:52:31Z</time>
      </trkpt>
      <trkpt lat="48.62416" lon="6.1985">
        <ele>224</ele>
        <time>2011-06-23T02:52:34Z</time>
      </trkpt>
      <trkpt lat="48.62434" lon="6.19885">
        <ele>223</ele>
        <time>2011-06-23T02:52:38Z</time>
      </trkpt>
      <trkpt lat="48.62496" lon="6.19982">
        <ele>218</ele>
        <time>2011-06-23T02:52:50Z</time>
      </trkpt>
      <trkpt lat="48.62498" lon="6.20009">
        <ele>218</ele>
        <time>2011-06-23T02:52:52Z</time>
      </trkpt>
      <trkpt lat="48.62488" lon="6.20108">
        <ele>218</ele>
        <time>2011-06-23T02:53:01Z</time>
      </trkpt>
      <trkpt lat="48.62488" lon="6.20185">
        <ele>218</ele>
        <time>2011-06-23T02:53:08Z</time>
      </trkpt>
      <trkpt lat="48.62494" lon="6.20207">
        <ele>218</ele>
        <time>2011-06-23T02:53:10Z</time>
      </trkpt>
      <trkpt lat="48.62512" lon="6.20226">
        <ele>218</ele>
        <time>2011-06-23T02:53:13Z</time>
      </trkpt>
      <trkpt lat="48.62518" lon="6.20238">
        <ele>218</ele>
        <time>2011-06-23T02:53:14Z</time>
      </trkpt>
      <trkpt lat="48.62518" lon="6.20277">
        <ele>218</ele>
        <time>2011-06-23T02:53:18Z</time>
      </trkpt>
      <trkpt lat="48.62567" lon="6.20283">
        <ele>218</ele>
        <time>2011-06-23T02:53:24Z</time>
      </trkpt>
      <trkpt lat="48.62564" lon="6.20363">
        <ele>217</ele>
        <time>2011-06-23T02:53:31Z</time>
      </trkpt>
      <trkpt lat="48.62556" lon="6.20452">
        <ele>217</ele>
        <time>2011-06-23T02:53:39Z</time>
      </trkpt>
      <trkpt lat="48.62557" lon="6.20518">
        <ele>218</ele>
        <time>2011-06-23T02:53:50Z</time>
      </trkpt>
      <trkpt lat="48.62562" lon="6.20569">
        <ele>220</ele>
        <time>2011-06-23T02:53:58Z</time>
      </trkpt>
      <trkpt lat="48.62555" lon="6.20581">
        <ele>220</ele>
        <time>2011-06-23T02:54:00Z</time>
      </trkpt>
      <trkpt lat="48.62559" lon="6.20592">
        <ele>221</ele>
        <time>2011-06-23T02:54:02Z</time>
      </trkpt>
      <trkpt lat="48.62566" lon="6.20593">
        <ele>220</ele>
        <time>2011-06-23T02:54:03Z</time>
      </trkpt>
      <trkpt lat="48.62571" lon="6.20586">
        <ele>220</ele>
        <time>2011-06-23T02:54:04Z</time>
      </trkpt>
      <trkpt lat="48.62595" lon="6.206">
        <ele>219</ele>
        <time>2011-06-23T02:54:07Z</time>
      </trkpt>
      <trkpt lat="48.62841" lon="6.20754">
        <ele>213</ele>
        <time>2011-06-23T02:54:43Z</time>
      </trkpt>
      <trkpt lat="48.62862" lon="6.20775">
        <ele>213</ele>
        <time>2011-06-23T02:54:47Z</time>
      </trkpt>
      <trkpt lat="48.62869" lon="6.2081">
        <ele>213</ele>
        <time>2011-06-23T02:54:51Z</time>
      </trkpt>
      <trkpt lat="48.62868" lon="6.20835">
        <ele>213</ele>
        <time>2011-06-23T02:54:54Z</time>
      </trkpt>
      <trkpt lat="48.62782" lon="6.21306">
        <ele>218</ele>
        <time>2011-06-23T02:55:47Z</time>
      </trkpt>
      <trkpt lat="48.62632" lon="6.21771">
        <ele>214</ele>
        <time>2011-06-23T02:56:32Z</time>
      </trkpt>
      <trkpt lat="48.62588" lon="6.21972">
        <ele>216</ele>
        <time>2011-06-23T02:56:56Z</time>
      </trkpt>
      <trkpt lat="48.62556" lon="6.22057">
        <ele>217</ele>
        <time>2011-06-23T02:57:07Z</time>
      </trkpt>
      <trkpt lat="48.62501" lon="6.22179">
        <ele>219</ele>
        <time>2011-06-23T02:57:25Z</time>
      </trkpt>
      <trkpt lat="48.62467" lon="6.22225">
        <ele>219</ele>
        <time>2011-06-23T02:57:33Z</time>
      </trkpt>
      <trkpt lat="48.62367" lon="6.22339">
        <ele>222</ele>
        <time>2011-06-23T02:57:55Z</time>
      </trkpt>
      <trkpt lat="48.62215" lon="6.22523">
        <ele>225</ele>
        <time>2011-06-23T02:58:28Z</time>
      </trkpt>
      <trkpt lat="48.62174" lon="6.22593">
        <ele>222</ele>
        <time>2011-06-23T02:58:36Z</time>
      </trkpt>
      <trkpt lat="48.62086" lon="6.22761">
        <ele>216</ele>
        <time>2011-06-23T02:58:55Z</time>
      </trkpt>
      <trkpt lat="48.62061" lon="6.22795">
        <ele>217</ele>
        <time>2011-06-23T02:59:04Z</time>
      </trkpt>
      <trkpt lat="48.62036" lon="6.22812">
        <ele>219</ele>
        <time>2011-06-23T02:59:11Z</time>
      </trkpt>
      <trkpt lat="48.6201" lon="6.22821">
        <ele>220</ele>
        <time>2011-06-23T02:59:18Z</time>
      </trkpt>
      <trkpt lat="48.61822" lon="6.22813">
        <ele>230</ele>
        <time>2011-06-23T03:00:06Z</time>
      </trkpt>
      <trkpt lat="48.61756" lon="6.22822">
        <ele>232</ele>
        <time>2011-06-23T03:00:20Z</time>
      </trkpt>
      <trkpt lat="48.61702" lon="6.22849">
        <ele>234</ele>
        <time>2011-06-23T03:00:32Z</time>
      </trkpt>
      <trkpt lat="48.61487" lon="6.23">
        <ele>238</ele>
        <time>2011-06-23T03:01:13Z</time>
      </trkpt>
      <trkpt lat="48.61448" lon="6.23052">
        <ele>237</ele>
        <time>2011-06-23T03:01:20Z</time>
      </trkpt>
      <trkpt lat="48.61349" lon="6.23286">
        <ele>236</ele>
        <time>2011-06-23T03:01:44Z</time>
      </trkpt>
      <trkpt lat="48.61313" lon="6.2336">
        <ele>234</ele>
        <time>2011-06-23T03:01:53Z</time>
      </trkpt>
      <trkpt lat="48.61203" lon="6.23491">
        <ele>232</ele>
        <time>2011-06-23T03:02:11Z</time>
      </trkpt>
      <trkpt lat="48.61193" lon="6.23509">
        <ele>232</ele>
        <time>2011-06-23T03:02:14Z</time>
      </trkpt>
      <trkpt lat="48.61168" lon="6.23576">
        <ele>233</ele>
        <time>2011-06-23T03:02:23Z</time>
      </trkpt>
      <trkpt lat="48.61157" lon="6.23586">
        <ele>233</ele>
        <time>2011-06-23T03:02:25Z</time>
      </trkpt>
      <trkpt lat="48.6112" lon="6.23591">
        <ele>234</ele>
        <time>2011-06-23T03:02:32Z</time>
      </trkpt>
      <trkpt lat="48.61103" lon="6.23599">
        <ele>235</ele>
        <time>2011-06-23T03:02:37Z</time>
      </trkpt>
      <trkpt lat="48.61056" lon="6.23668">
        <ele>240</ele>
        <time>2011-06-23T03:02:57Z</time>
      </trkpt>
      <trkpt lat="48.61053" lon="6.23685">
        <ele>241</ele>
        <time>2011-06-23T03:03:01Z</time>
      </trkpt>
      <trkpt lat="48.61056" lon="6.23727">
        <ele>241</ele>
        <time>2011-06-23T03:03:05Z</time>
      </trkpt>
      <trkpt lat="48.61135" lon="6.2403">
        <ele>242</ele>
        <time>2011-06-23T03:03:36Z</time>
      </trkpt>
      <trkpt lat="48.6116" lon="6.24185">
        <ele>241</ele>
        <time>2011-06-23T03:03:50Z</time>
      </trkpt>
      <trkpt lat="48.61267" lon="6.24656">
        <ele>238</ele>
        <time>2011-06-23T03:04:34Z</time>
      </trkpt>
      <trkpt lat="48.61275" lon="6.24712">
        <ele>238</ele>
        <time>2011-06-23T03:04:40Z</time>
      </trkpt>
      <trkpt lat="48.61276" lon="6.24763">
        <ele>238</ele>
        <time>2011-06-23T03:04:45Z</time>
      </trkpt>
      <trkpt lat="48.6125" lon="6.24918">
        <ele>239</ele>
        <time>2011-06-23T03:05:00Z</time>
      </trkpt>
      <trkpt lat="48.61249" lon="6.24952">
        <ele>238</ele>
        <time>2011-06-23T03:05:03Z</time>
      </trkpt>
      <trkpt lat="48.61251" lon="6.2497">
        <ele>238</ele>
        <time>2011-06-23T03:05:05Z</time>
      </trkpt>
      <trkpt lat="48.61258" lon="6.24985">
        <ele>238</ele>
        <time>2011-06-23T03:05:06Z</time>
      </trkpt>
      <trkpt lat="48.6128" lon="6.25004">
        <ele>238</ele>
        <time>2011-06-23T03:05:10Z</time>
      </trkpt>
      <trkpt lat="48.6128" lon="6.25004">
        <ele>238</ele>
        <time>2011-06-23T03:05:11Z</time>
      </trkpt>
      <trkpt lat="48.61336" lon="6.25064">
        <ele>235</ele>
        <time>2011-06-23T03:05:20Z</time>
      </trkpt>
      <trkpt lat="48.61444" lon="6.25235">
        <ele>229</ele>
        <time>2011-06-23T03:05:41Z</time>
      </trkpt>
      <trkpt lat="48.61469" lon="6.25304">
        <ele>228</ele>
        <time>2011-06-23T03:05:48Z</time>
      </trkpt>
      <trkpt lat="48.61478" lon="6.25353">
        <ele>227</ele>
        <time>2011-06-23T03:05:52Z</time>
      </trkpt>
      <trkpt lat="48.61561" lon="6.25405">
        <ele>226</ele>
        <time>2011-06-23T03:06:04Z</time>
      </trkpt>
      <trkpt lat="48.61608" lon="6.25418">
        <ele>225</ele>
        <time>2011-06-23T03:06:11Z</time>
      </trkpt>
      <trkpt lat="48.6161" lon="6.2544">
        <ele>224</ele>
        <time>2011-06-23T03:06:13Z</time>
      </trkpt>
      <trkpt lat="48.61625" lon="6.25484">
        <ele>224</ele>
        <time>2011-06-23T03:06:17Z</time>
      </trkpt>
      <trkpt lat="48.6165" lon="6.25613">
        <ele>223</ele>
        <time>2011-06-23T03:06:29Z</time>
      </trkpt>
      <trkpt lat="48.61655" lon="6.25674">
        <ele>224</ele>
        <time>2011-06-23T03:06:37Z</time>
      </trkpt>
      <trkpt lat="48.61648" lon="6.25704">
        <ele>224</ele>
        <time>2011-06-23T03:06:42Z</time>
      </trkpt>
      <trkpt lat="48.61608" lon="6.25776">
        <ele>227</ele>
        <time>2011-06-23T03:06:55Z</time>
      </trkpt>
      <trkpt lat="48.61585" lon="6.25872">
        <ele>228</ele>
        <time>2011-06-23T03:07:09Z</time>
      </trkpt>
      <trkpt lat="48.61536" lon="6.25953">
        <ele>231</ele>
        <time>2011-06-23T03:07:23Z</time>
      </trkpt>
      <trkpt lat="48.61525" lon="6.2598">
        <ele>231</ele>
        <time>2011-06-23T03:07:27Z</time>
      </trkpt>
      <trkpt lat="48.61512" lon="6.26028">
        <ele>232</ele>
        <time>2011-06-23T03:07:34Z</time>
      </trkpt>
      <trkpt lat="48.61511" lon="6.26103">
        <ele>234</ele>
        <time>2011-06-23T03:07:44Z</time>
      </trkpt>
      <trkpt lat="48.61516" lon="6.26139">
        <ele>233</ele>
        <time>2011-06-23T03:07:48Z</time>
      </trkpt>
      <trkpt lat="48.61532" lon="6.26197">
        <ele>233</ele>
        <time>2011-06-23T03:07:53Z</time>
      </trkpt>
      <trkpt lat="48.61626" lon="6.26399">
        <ele>232</ele>
        <time>2011-06-23T03:08:15Z</time>
      </trkpt>
      <trkpt lat="48.6164" lon="6.26447">
        <ele>232</ele>
        <time>2011-06-23T03:08:21Z</time>
      </trkpt>
      <trkpt lat="48.61684" lon="6.26993">
        <ele>237</ele>
        <time>2011-06-23T03:09:20Z</time>
      </trkpt>
      <trkpt lat="48.6171" lon="6.27248">
        <ele>242</ele>
        <time>2011-06-23T03:09:55Z</time>
      </trkpt>
      <trkpt lat="48.61714" lon="6.27273">
        <ele>242</ele>
        <time>2011-06-23T03:09:59Z</time>
      </trkpt>
      <trkpt lat="48.61734" lon="6.27333">
        <ele>243</ele>
        <time>2011-06-23T03:10:08Z</time>
      </trkpt>
      <trkpt lat="48.61734" lon="6.27347">
        <ele>244</ele>
        <time>2011-06-23T03:10:10Z</time>
      </trkpt>
      <trkpt lat="48.61729" lon="6.27365">
        <ele>244</ele>
        <time>2011-06-23T03:10:12Z</time>
      </trkpt>
      <trkpt lat="48.61733" lon="6.27389">
        <ele>245</ele>
        <time>2011-06-23T03:10:16Z</time>
      </trkpt>
      <trkpt lat="48.61744" lon="6.27403">
        <ele>245</ele>
        <time>2011-06-23T03:10:18Z</time>
      </trkpt>
      <trkpt lat="48.61762" lon="6.27405">
        <ele>245</ele>
        <time>2011-06-23T03:10:21Z</time>
      </trkpt>
      <trkpt lat="48.61775" lon="6.27413">
        <ele>245</ele>
        <time>2011-06-23T03:10:23Z</time>
      </trkpt>
      <trkpt lat="48.61803" lon="6.27443">
        <ele>246</ele>
        <time>2011-06-23T03:10:29Z</time>
      </trkpt>
      <trkpt lat="48.61853" lon="6.27529">
        <ele>247</ele>
        <time>2011-06-23T03:10:41Z</time>
      </trkpt>
      <trkpt lat="48.6186" lon="6.27551">
        <ele>247</ele>
        <time>2011-06-23T03:10:44Z</time>
      </trkpt>
      <trkpt lat="48.61867" lon="6.27597">
        <ele>247</ele>
        <time>2011-06-23T03:10:49Z</time>
      </trkpt>
      <trkpt lat="48.61887" lon="6.27617">
        <ele>247</ele>
        <time>2011-06-23T03:10:52Z</time>
      </trkpt>
      <trkpt lat="48.61915" lon="6.27668">
        <ele>248</ele>
        <time>2011-06-23T03:10:59Z</time>
      </trkpt>
      <trkpt lat="48.61935" lon="6.27755">
        <ele>246</ele>
        <time>2011-06-23T03:11:07Z</time>
      </trkpt>
      <trkpt lat="48.61951" lon="6.27847">
        <ele>244</ele>
        <time>2011-06-23T03:11:16Z</time>
      </trkpt>
      <trkpt lat="48.61972" lon="6.27906">
        <ele>243</ele>
        <time>2011-06-23T03:11:22Z</time>
      </trkpt>
      <trkpt lat="48.62022" lon="6.28008">
        <ele>243</ele>
        <time>2011-06-23T03:11:33Z</time>
      </trkpt>
      <trkpt lat="48.62041" lon="6.28058">
        <ele>242</ele>
        <time>2011-06-23T03:11:38Z</time>
      </trkpt>
      <trkpt lat="48.62055" lon="6.28113">
        <ele>242</ele>
        <time>2011-06-23T03:11:43Z</time>
      </trkpt>
      <trkpt lat="48.62078" lon="6.28235">
        <ele>241</ele>
        <time>2011-06-23T03:11:54Z</time>
      </trkpt>
      <trkpt lat="48.621" lon="6.28312">
        <ele>241</ele>
        <time>2011-06-23T03:12:02Z</time>
      </trkpt>
      <trkpt lat="48.62244" lon="6.28683">
        <ele>243</ele>
        <time>2011-06-23T03:12:44Z</time>
      </trkpt>
      <trkpt lat="48.62339" lon="6.28973">
        <ele>251</ele>
        <time>2011-06-23T03:13:32Z</time>
      </trkpt>
      <trkpt lat="48.62417" lon="6.29173">
        <ele>254</ele>
        <time>2011-06-23T03:14:00Z</time>
      </trkpt>
      <trkpt lat="48.62451" lon="6.29248">
        <ele>255</ele>
        <time>2011-06-23T03:14:11Z</time>
      </trkpt>
      <trkpt lat="48.62483" lon="6.29309">
        <ele>256</ele>
        <time>2011-06-23T03:14:20Z</time>
      </trkpt>
      <trkpt lat="48.62509" lon="6.29337">
        <ele>255</ele>
        <time>2011-06-23T03:14:24Z</time>
      </trkpt>
      <trkpt lat="48.62689" lon="6.29467">
        <ele>249</ele>
        <time>2011-06-23T03:14:51Z</time>
      </trkpt>
      <trkpt lat="48.62715" lon="6.29488">
        <ele>246</ele>
        <time>2011-06-23T03:14:54Z</time>
      </trkpt>
      <trkpt lat="48.62752" lon="6.2953">
        <ele>243</ele>
        <time>2011-06-23T03:15:01Z</time>
      </trkpt>
      <trkpt lat="48.6282" lon="6.29638">
        <ele>236</ele>
        <time>2011-06-23T03:15:14Z</time>
      </trkpt>
      <trkpt lat="48.6287" lon="6.29736">
        <ele>232</ele>
        <time>2011-06-23T03:15:25Z</time>
      </trkpt>
      <trkpt lat="48.62962" lon="6.29932">
        <ele>225</ele>
        <time>2011-06-23T03:15:46Z</time>
      </trkpt>
      <trkpt lat="48.62987" lon="6.29975">
        <ele>223</ele>
        <time>2011-06-23T03:15:51Z</time>
      </trkpt>
      <trkpt lat="48.63087" lon="6.30117">
        <ele>217</ele>
        <time>2011-06-23T03:16:09Z</time>
      </trkpt>
      <trkpt lat="48.63122" lon="6.30199">
        <ele>217</ele>
        <time>2011-06-23T03:16:18Z</time>
      </trkpt>
      <trkpt lat="48.63113" lon="6.30205">
        <ele>217</ele>
        <time>2011-06-23T03:16:19Z</time>
      </trkpt>
      <trkpt lat="48.63063" lon="6.30267">
        <ele>217</ele>
        <time>2011-06-23T03:16:28Z</time>
      </trkpt>
      <trkpt lat="48.63053" lon="6.3029">
        <ele>216</ele>
        <time>2011-06-23T03:16:30Z</time>
      </trkpt>
      <trkpt lat="48.63063" lon="6.30324">
        <ele>215</ele>
        <time>2011-06-23T03:16:34Z</time>
      </trkpt>
      <trkpt lat="48.63083" lon="6.30352">
        <ele>214</ele>
        <time>2011-06-23T03:16:37Z</time>
      </trkpt>
      <trkpt lat="48.6319" lon="6.30535">
        <ele>208</ele>
        <time>2011-06-23T03:16:59Z</time>
      </trkpt>
      <trkpt lat="48.6323" lon="6.30654">
        <ele>205</ele>
        <time>2011-06-23T03:17:11Z</time>
      </trkpt>
      <trkpt lat="48.63278" lon="6.30778">
        <ele>203</ele>
        <time>2011-06-23T03:17:23Z</time>
      </trkpt>
      <trkpt lat="48.63362" lon="6.30907">
        <ele>204</ele>
        <time>2011-06-23T03:17:42Z</time>
      </trkpt>
      <trkpt lat="48.63376" lon="6.30932">
        <ele>204</ele>
        <time>2011-06-23T03:17:45Z</time>
      </trkpt>
      <trkpt lat="48.63386" lon="6.30964">
        <ele>204</ele>
        <time>2011-06-23T03:17:48Z</time>
      </trkpt>
      <trkpt lat="48.6341" lon="6.31013">
        <ele>204</ele>
        <time>2011-06-23T03:17:54Z</time>
      </trkpt>
      <trkpt lat="48.63478" lon="6.31064">
        <ele>205</ele>
        <time>2011-06-23T03:18:06Z</time>
      </trkpt>
      <trkpt lat="48.63445" lon="6.31097">
        <ele>204</ele>
        <time>2011-06-23T03:18:11Z</time>
      </trkpt>
      <trkpt lat="48.63434" lon="6.31114">
        <ele>204</ele>
        <time>2011-06-23T03:18:13Z</time>
      </trkpt>
      <trkpt lat="48.63388" lon="6.31229">
        <ele>204</ele>
        <time>2011-06-23T03:18:25Z</time>
      </trkpt>
      <trkpt lat="48.63387" lon="6.31251">
        <ele>204</ele>
        <time>2011-06-23T03:18:27Z</time>
      </trkpt>
      <trkpt lat="48.63393" lon="6.31282">
        <ele>204</ele>
        <time>2011-06-23T03:18:31Z</time>
      </trkpt>
      <trkpt lat="48.63358" lon="6.31374">
        <ele>205</ele>
        <time>2011-06-23T03:18:41Z</time>
      </trkpt>
      <trkpt lat="48.63402" lon="6.31413">
        <ele>204</ele>
        <time>2011-06-23T03:18:48Z</time>
      </trkpt>
      <trkpt lat="48.63408" lon="6.31424">
        <ele>204</ele>
        <time>2011-06-23T03:18:50Z</time>
      </trkpt>
      <trkpt lat="48.63386" lon="6.31467">
        <ele>204</ele>
        <time>2011-06-23T03:18:54Z</time>
      </trkpt>
    </trkseg>
  </trk>
</gpx>